
Distance (Route):
Temperature : 8.1°C
Humidity : 73.0%
Pressure : 0hPa| Receiver | Frames | First received | Last received |
|---|---|---|---|
| DL9RDZ-1 | 414 | 2026-08-30 11:03:26 | 2026-08-30 12:56:44 |
| Receiver | Date | Latitude | Longitude | Direction | Speed | Altitude | Climb | Temperature | Humidity | Pressure | Voltage | Killtimer | Uptime | BKT | XDATA |
|---|---|---|---|---|---|---|---|---|---|---|---|---|---|---|---|
| DL9RDZ-1 | 2026-08-30 12:56:44 | 64.18199 | -22.04317 | 20° | 16km/h | 269m | -14.9m/s | 8.1°C | 73.0% | 0hPa | 0V | 08:11:00 | 00:00:00 | 00:00:00 | |
| DL9RDZ-1 | 2026-08-30 12:56:34 | 64.18159 | -22.04349 | 18° | 18km/h | 406m | -14.1m/s | 6.8°C | 77.8% | 0hPa | 0V | 08:11:00 | 00:00:00 | 00:00:00 | |
| DL9RDZ-1 | 2026-08-30 12:56:23 | 64.18121 | -22.04375 | 12° | 15km/h | 549m | -14.6m/s | 5.4°C | 85.3% | 0hPa | 0V | 08:12:00 | 00:00:00 | 00:00:00 | |
| DL9RDZ-1 | 2026-08-30 12:56:12 | 64.18085 | -22.04391 | 7° | 13km/h | 691m | -14.5m/s | 4.0°C | 91.1% | 0hPa | 0V | 08:12:00 | 00:00:00 | 00:00:00 | |
| DL9RDZ-1 | 2026-08-30 12:56:01 | 64.18052 | -22.04397 | 360° | 11km/h | 834m | -14.4m/s | 2.7°C | 95.7% | 0hPa | 0V | 08:12:00 | 00:00:00 | 00:00:00 | |
| DL9RDZ-1 | 2026-08-30 12:55:50 | 64.18024 | -22.04384 | 348° | 11km/h | 979m | -14.1m/s | 1.7°C | 0% | 0hPa | 0V | 08:12:00 | 00:00:00 | 00:00:00 | |
| DL9RDZ-1 | 2026-08-30 12:55:39 | 64.17998 | -22.04364 | 344° | 13km/h | 1123m | -14.1m/s | 0.8°C | 0% | 0hPa | 0V | 08:12:00 | 00:00:00 | 00:00:00 | |
| DL9RDZ-1 | 2026-08-30 12:55:29 | 64.17965 | -22.04351 | 360° | 13km/h | 1257m | -14.7m/s | 0.4°C | 88.0% | 0hPa | 0V | 08:13:00 | 00:00:00 | 00:00:00 | |
| DL9RDZ-1 | 2026-08-30 12:55:19 | 64.17935 | -22.04342 | 346° | 13km/h | 1393m | -14.6m/s | -0.9°C | 95.0% | 0hPa | 0V | 08:13:00 | 00:00:00 | 00:00:00 | |
| DL9RDZ-1 | 2026-08-30 12:55:08 | 64.17908 | -22.04313 | 321° | 9km/h | 1543m | -15.2m/s | -2.0°C | 96.6% | 0hPa | 0V | 08:13:00 | 00:00:00 | 00:00:00 | |
| DL9RDZ-1 | 2026-08-30 12:54:58 | 64.17894 | -22.04287 | 319° | 5km/h | 1686m | -15.2m/s | -2.9°C | 93.6% | 0hPa | 0V | 08:13:00 | 00:00:00 | 00:00:00 | |
| DL9RDZ-1 | 2026-08-30 12:54:47 | 64.17882 | -22.04264 | 314° | 5km/h | 1837m | -15.3m/s | -3.8°C | 84.1% | 0hPa | 0V | 08:13:00 | 00:00:00 | 00:00:00 | |
| DL9RDZ-1 | 2026-08-30 12:54:36 | 64.17865 | -22.04254 | 350° | 7km/h | 1990m | -15.7m/s | -4.3°C | 76.2% | 0hPa | 0V | 08:14:00 | 00:00:00 | 00:00:00 | |
| DL9RDZ-1 | 2026-08-30 12:54:25 | 64.17840 | -22.04240 | 340° | 11km/h | 2148m | -15.0m/s | -5.5°C | 83.8% | 0hPa | 0V | 08:14:00 | 00:00:00 | 00:00:00 | |
| DL9RDZ-1 | 2026-08-30 12:54:14 | 64.17812 | -22.04223 | 355° | 11km/h | 2306m | -15.2m/s | -7.0°C | 90.7% | 0hPa | 0V | 08:14:00 | 00:00:00 | 00:00:00 | |
| DL9RDZ-1 | 2026-08-30 12:54:04 | 64.17789 | -22.04215 | 353° | 7km/h | 2443m | -14.7m/s | -7.7°C | 91.7% | 0hPa | 0V | 08:14:00 | 00:00:00 | 00:00:00 | |
| DL9RDZ-1 | 2026-08-30 12:53:53 | 64.17775 | -22.04215 | 8° | 7km/h | 2594m | -15.1m/s | -8.4°C | 97.1% | 0hPa | 0V | 08:15:00 | 00:00:00 | 00:00:00 | |
| DL9RDZ-1 | 2026-08-30 12:53:43 | 64.17750 | -22.04239 | 21° | 11km/h | 2735m | -15.2m/s | -9.3°C | 0% | 0hPa | 0V | 08:15:00 | 00:00:00 | 00:00:00 | |
| DL9RDZ-1 | 2026-08-30 12:53:32 | 64.17730 | -22.04247 | 6° | 5km/h | 2893m | -15.3m/s | -10.4°C | 0% | 0hPa | 0V | 08:15:00 | 00:00:00 | 00:00:00 | |
| DL9RDZ-1 | 2026-08-30 12:53:21 | 64.17721 | -22.04255 | 44° | 4km/h | 3052m | -15.9m/s | -11.7°C | 0% | 0hPa | 0V | 08:15:00 | 00:00:00 | 00:00:00 | |
| DL9RDZ-1 | 2026-08-30 12:53:10 | 64.17713 | -22.04290 | 75° | 11km/h | 3211m | -15.2m/s | -12.3°C | 84.0% | 0hPa | 0V | 08:15:00 | 00:00:00 | 00:00:00 | |
| DL9RDZ-1 | 2026-08-30 12:53:00 | 64.17706 | -22.04394 | 85° | 22km/h | 3367m | -15.2m/s | -13.2°C | 83.8% | 0hPa | 0V | 08:16:00 | 00:00:00 | 00:00:00 | |
| DL9RDZ-1 | 2026-08-30 12:52:48 | 64.17706 | -22.04565 | 91° | 27km/h | 3528m | -16.0m/s | -14.1°C | 71.8% | 0hPa | 0V | 08:16:00 | 00:00:00 | 00:00:00 | |
| DL9RDZ-1 | 2026-08-30 12:52:37 | 64.17705 | -22.04744 | 88° | 27km/h | 3689m | -15.4m/s | -15.6°C | 78.4% | 0hPa | 0V | 08:16:00 | 00:00:00 | 00:00:00 | |
| DL9RDZ-1 | 2026-08-30 12:52:28 | 64.17699 | -22.04894 | 82° | 18km/h | 3846m | -15.7m/s | -16.5°C | 76.3% | 0hPa | 0V | 08:16:00 | 00:00:00 | 00:00:00 | |
| DL9RDZ-1 | 2026-08-30 12:52:16 | 64.17687 | -22.04976 | 46° | 13km/h | 4001m | -15.6m/s | -17.2°C | 71.2% | 0hPa | 0V | 08:16:00 | 00:00:00 | 00:00:00 | |
| DL9RDZ-1 | 2026-08-30 12:52:04 | 64.17657 | -22.05027 | 38° | 13km/h | 4162m | -15.6m/s | -18.5°C | 71.3% | 0hPa | 0V | 08:17:00 | 00:00:00 | 00:00:00 | |
| DL9RDZ-1 | 2026-08-30 12:51:54 | 64.17640 | -22.05073 | 48° | 13km/h | 4309m | -16.1m/s | -19.7°C | 79.5% | 0hPa | 0V | 08:17:00 | 00:00:00 | 00:00:00 | |
| DL9RDZ-1 | 2026-08-30 12:51:43 | 64.17611 | -22.05128 | 33° | 15km/h | 4479m | -16.4m/s | -21.2°C | 80.9% | 0hPa | 0V | 08:17:00 | 00:00:00 | 00:00:00 | |
| DL9RDZ-1 | 2026-08-30 12:51:32 | 64.17576 | -22.05186 | 35° | 18km/h | 4652m | -16.8m/s | -22.6°C | 76.8% | 0hPa | 0V | 08:17:00 | 00:00:00 | 00:00:00 | |
| DL9RDZ-1 | 2026-08-30 12:51:23 | 64.17537 | -22.05251 | 35° | 22km/h | 4813m | -16.9m/s | -24.1°C | 83.7% | 0hPa | 0V | 08:17:00 | 00:00:00 | 00:00:00 | |
| DL9RDZ-1 | 2026-08-30 12:51:11 | 64.17486 | -22.05336 | 34° | 26km/h | 4987m | -16.5m/s | -25.6°C | 93.6% | 0hPa | 0V | 08:17:00 | 00:00:00 | 00:00:00 | |
| DL9RDZ-1 | 2026-08-30 12:51:00 | 64.17426 | -22.05438 | 35° | 33km/h | 5157m | -16.6m/s | -27.1°C | 0% | 0hPa | 0V | 08:17:00 | 00:00:00 | 00:00:00 | |
| DL9RDZ-1 | 2026-08-30 12:50:49 | 64.17337 | -22.05554 | 26° | 40km/h | 5332m | -17.3m/s | -28.5°C | 0% | 0hPa | 0V | 08:17:00 | 00:00:00 | 00:00:00 | |
| DL9RDZ-1 | 2026-08-30 12:50:38 | 64.17231 | -22.05650 | 19° | 40km/h | 5500m | -15.8m/s | -29.2°C | 91.7% | 0hPa | 0V | 08:17:00 | 00:00:00 | 00:00:00 | |
| DL9RDZ-1 | 2026-08-30 12:50:17 | 64.17118 | -22.05800 | 45° | 16km/h | 5828m | -17.1m/s | -30.4°C | 49.3% | 0hPa | 0V | 08:18:00 | 00:00:00 | 00:00:00 | |
| DL9RDZ-1 | 2026-08-30 12:50:06 | 64.17085 | -22.05875 | 38° | 16km/h | 6012m | -17.6m/s | -31.7°C | 38.0% | 0hPa | 0V | 08:18:00 | 00:00:00 | 00:00:00 | |
| DL9RDZ-1 | 2026-08-30 12:49:56 | 64.17052 | -22.05937 | 37° | 18km/h | 6187m | -17.5m/s | -32.7°C | 35.4% | 0hPa | 0V | 08:18:00 | 00:00:00 | 00:00:00 | |
| DL9RDZ-1 | 2026-08-30 12:49:45 | 64.17009 | -22.06010 | 35° | 18km/h | 6366m | -17.7m/s | -34.0°C | 47.0% | 0hPa | 0V | 08:18:00 | 00:00:00 | 00:00:00 | |
| DL9RDZ-1 | 2026-08-30 12:49:34 | 64.16958 | -22.06060 | 45° | 20km/h | 6492m | -18.9m/s | -35.4°C | 46.8% | 0hPa | 0V | 08:19:00 | 00:00:00 | 00:00:00 | |
| DL9RDZ-1 | 2026-08-30 12:49:24 | 64.16911 | -22.06149 | 43° | 24km/h | 6671m | -19.8m/s | -36.6°C | 45.4% | 0hPa | 0V | 08:19:00 | 00:00:00 | 00:00:00 | |
| DL9RDZ-1 | 2026-08-30 12:49:12 | 64.16856 | -22.06247 | 49° | 27km/h | 6856m | -20.1m/s | -37.9°C | 46.2% | 0hPa | 0V | 08:19:00 | 00:00:00 | 00:00:00 | |
| DL9RDZ-1 | 2026-08-30 12:49:02 | 64.16802 | -22.06368 | 48° | 33km/h | 7020m | -20.7m/s | -38.5°C | 27.0% | 0hPa | 0V | 08:19:00 | 00:00:00 | 00:00:00 | |
| DL9RDZ-1 | 2026-08-30 12:48:52 | 64.16740 | -22.06503 | 45° | 29km/h | 7212m | -20.0m/s | -39.8°C | 39.2% | 0hPa | 0V | 08:19:00 | 00:00:00 | 00:00:00 | |
| DL9RDZ-1 | 2026-08-30 12:48:40 | 64.16679 | -22.06634 | 48° | 31km/h | 7404m | -21.3m/s | -41.0°C | 41.0% | 0hPa | 0V | 08:20:00 | 00:00:00 | 00:00:00 | |
| DL9RDZ-1 | 2026-08-30 12:48:29 | 64.16612 | -22.06772 | 41° | 35km/h | 7599m | -21.2m/s | -42.5°C | 51.4% | 0hPa | 0V | 08:20:00 | 00:00:00 | 00:00:00 | |
| DL9RDZ-1 | 2026-08-30 12:48:18 | 64.16535 | -22.06905 | 41° | 37km/h | 7791m | -20.7m/s | -44.0°C | 59.1% | 0hPa | 0V | 08:20:00 | 00:00:00 | 00:00:00 | |
| DL9RDZ-1 | 2026-08-30 12:48:07 | 64.16453 | -22.07056 | 42° | 37km/h | 7977m | -20.3m/s | -45.7°C | 53.6% | 0hPa | 0V | 08:20:00 | 00:00:00 | 00:00:00 | |
| DL9RDZ-1 | 2026-08-30 12:47:57 | 64.16377 | -22.07166 | 29° | 35km/h | 8159m | -21.1m/s | -46.6°C | 41.0% | 0hPa | 0V | 08:21:00 | 00:00:00 | 00:00:00 | |
| DL9RDZ-1 | 2026-08-30 12:47:47 | 64.16296 | -22.07254 | 27° | 33km/h | 8373m | -22.1m/s | -47.9°C | 35.5% | 0hPa | 0V | 08:21:00 | 00:00:00 | 00:00:00 | |
| DL9RDZ-1 | 2026-08-30 12:47:35 | 64.16209 | -22.07333 | 24° | 35km/h | 8594m | -22.9m/s | -49.4°C | 34.9% | 0hPa | 0V | 08:21:00 | 00:00:00 | 00:00:00 | |
| DL9RDZ-1 | 2026-08-30 12:47:25 | 64.16121 | -22.07419 | 31° | 33km/h | 8815m | -22.7m/s | -50.7°C | 31.9% | 0hPa | 0V | 08:21:00 | 00:00:00 | 00:00:00 | |
| DL9RDZ-1 | 2026-08-30 12:47:15 | 64.16048 | -22.07503 | 27° | 33km/h | 9016m | -23.5m/s | -51.4°C | 26.6% | 0hPa | 0V | 08:21:00 | 00:00:00 | 00:00:00 | |
| DL9RDZ-1 | 2026-08-30 12:47:03 | 64.15964 | -22.07581 | 26° | 33km/h | 9241m | -23.1m/s | -51.6°C | 20.1% | 0hPa | 0V | 08:22:00 | 00:00:00 | 00:00:00 | |
| DL9RDZ-1 | 2026-08-30 12:46:50 | 64.15868 | -22.07678 | 30° | 29km/h | 9505m | -23.7m/s | -50.8°C | 12.7% | 0hPa | 0V | 08:22:00 | 00:00:00 | 00:00:00 | |
| DL9RDZ-1 | 2026-08-30 12:46:39 | 64.15803 | -22.07780 | 41° | 27km/h | 9724m | -23.1m/s | -49.6°C | 6.7% | 0hPa | 0V | 08:22:00 | 00:00:00 | 00:00:00 | |
| DL9RDZ-1 | 2026-08-30 12:46:28 | 64.15745 | -22.07930 | 54° | 33km/h | 9951m | -23.8m/s | -47.4°C | 3.2% | 0hPa | 0V | 08:22:00 | 00:00:00 | 00:00:00 | |
| DL9RDZ-1 | 2026-08-30 12:46:18 | 64.15701 | -22.08064 | 49° | 27km/h | 10165m | -24.4m/s | -46.1°C | 2.3% | 0hPa | 0V | 08:22:00 | 00:00:00 | 00:00:00 | |
| DL9RDZ-1 | 2026-08-30 12:46:07 | 64.15651 | -22.08152 | 40° | 26km/h | 10408m | -24.7m/s | -44.9°C | 1.7% | 0hPa | 0V | 08:22:00 | 00:00:00 | 00:00:00 | |
| DL9RDZ-1 | 2026-08-30 12:45:56 | 64.15599 | -22.08301 | 55° | 31km/h | 10677m | -23.3m/s | -43.9°C | 1.5% | 0hPa | 0V | 08:22:00 | 00:00:00 | 00:00:00 | |
| DL9RDZ-1 | 2026-08-30 12:45:46 | 64.15564 | -22.08445 | 64° | 27km/h | 10899m | -22.1m/s | -43.7°C | 1.2% | 0hPa | 0V | 08:22:00 | 00:00:00 | 00:00:00 | |
| DL9RDZ-1 | 2026-08-30 12:45:35 | 64.15528 | -22.08604 | 64° | 35km/h | 11152m | -23.6m/s | -43.2°C | 1.0% | 0hPa | 0V | 08:22:00 | 00:00:00 | 00:00:00 | |
| DL9RDZ-1 | 2026-08-30 12:45:24 | 64.15485 | -22.08816 | 70° | 37km/h | 11405m | -23.6m/s | -43.0°C | 1.0% | 0hPa | 0V | 00:00:00 | 00:00:00 | 00:00:00 | |
| DL9RDZ-1 | 2026-08-30 12:45:14 | 64.15456 | -22.08973 | 64° | 26km/h | 11645m | -25.2m/s | -42.9°C | 1.0% | 0hPa | 0V | 00:00:00 | 00:00:00 | 00:00:00 | |
| DL9RDZ-1 | 2026-08-30 12:45:03 | 64.15436 | -22.09117 | 79° | 27km/h | 11910m | -24.2m/s | -42.5°C | 0.9% | 0hPa | 0V | 00:00:00 | 00:00:00 | 00:00:00 | |
| DL9RDZ-1 | 2026-08-30 12:44:53 | 64.15429 | -22.09239 | 64° | 16km/h | 12160m | -24.4m/s | -42.9°C | 1.0% | 0hPa | 0V | 00:00:00 | 00:00:00 | 00:00:00 | |
| DL9RDZ-1 | 2026-08-30 12:44:43 | 64.15397 | -22.09375 | 74° | 27km/h | 12418m | -25.4m/s | -43.1°C | 1.0% | 0hPa | 0V | 00:00:00 | 00:00:00 | 00:00:00 | |
| DL9RDZ-1 | 2026-08-30 12:44:25 | 64.15379 | -22.09580 | 77° | 22km/h | 12883m | -24.9m/s | -43.7°C | 1.0% | 0hPa | 0V | 08:24:00 | 00:00:00 | 00:00:00 | |
| DL9RDZ-1 | 2026-08-30 12:44:15 | 64.15375 | -22.09731 | 80° | 22km/h | 12914m | -28.7m/s | -43.4°C | 0.9% | 0hPa | 0V | 08:24:00 | 00:00:00 | 00:00:00 | |
| DL9RDZ-1 | 2026-08-30 12:44:04 | 64.15375 | -22.09849 | 89° | 20km/h | 13203m | -28.6m/s | -43.3°C | 0.8% | 0hPa | 0V | 08:24:00 | 00:00:00 | 00:00:00 | |
| DL9RDZ-1 | 2026-08-30 12:43:53 | 64.15352 | -22.09990 | 68° | 26km/h | 13546m | -29.3m/s | -43.5°C | 0.8% | 0hPa | 0V | 08:24:00 | 00:00:00 | 00:00:00 | |
| DL9RDZ-1 | 2026-08-30 12:43:36 | 64.15334 | -22.10142 | 75° | 11km/h | 14073m | -27.4m/s | -44.0°C | 0.8% | 0hPa | 0V | 08:25:00 | 00:00:00 | 00:00:00 | |
| DL9RDZ-1 | 2026-08-30 12:43:26 | 64.15322 | -22.10230 | 86° | 20km/h | 14363m | -28.9m/s | -44.1°C | 0.8% | 0hPa | 0V | 08:25:00 | 00:00:00 | 00:00:00 | |
| DL9RDZ-1 | 2026-08-30 12:43:15 | 64.15317 | -22.10351 | 73° | 13km/h | 14687m | -28.2m/s | -44.3°C | 0.8% | 0hPa | 0V | 08:25:00 | 00:00:00 | 00:00:00 | |
| DL9RDZ-1 | 2026-08-30 12:43:05 | 64.15302 | -22.10415 | 64° | 18km/h | 14981m | -30.6m/s | -45.4°C | 0.9% | 0hPa | 0V | 08:25:00 | 00:00:00 | 00:00:00 | |
| DL9RDZ-1 | 2026-08-30 12:42:54 | 64.15280 | -22.10552 | 84° | 29km/h | 15334m | -30.5m/s | -43.8°C | 0.7% | 0hPa | 0V | 08:25:00 | 00:00:00 | 00:00:00 | |
| DL9RDZ-1 | 2026-08-30 12:42:44 | 64.15277 | -22.10692 | 105° | 16km/h | 15660m | -30.3m/s | -44.3°C | 0.7% | 0hPa | 0V | 08:26:00 | 00:00:00 | 00:00:00 | |
| DL9RDZ-1 | 2026-08-30 12:42:33 | 64.15266 | -22.10757 | 34° | 16km/h | 16021m | -30.7m/s | -45.5°C | 0.8% | 0hPa | 0V | 08:26:00 | 00:00:00 | 00:00:00 | |
| DL9RDZ-1 | 2026-08-30 12:42:23 | 64.15232 | -22.10836 | 79° | 18km/h | 16348m | -32.6m/s | -44.9°C | 0.7% | 0hPa | 0V | 08:26:00 | 00:00:00 | 00:00:00 | |
| DL9RDZ-1 | 2026-08-30 12:42:12 | 64.15220 | -22.10905 | 48° | 11km/h | 16655m | -33.3m/s | -45.3°C | 0.8% | 0hPa | 0V | 08:26:00 | 00:00:00 | 00:00:00 | |
| DL9RDZ-1 | 2026-08-30 12:42:02 | 64.15218 | -22.11023 | 67° | 20km/h | 16888m | -34.1m/s | -46.4°C | 0.8% | 0hPa | 0V | 08:26:00 | 00:00:00 | 00:00:00 | |
| DL9RDZ-1 | 2026-08-30 12:41:51 | 64.15213 | -22.11109 | 49° | 7km/h | 17268m | -32.9m/s | -45.8°C | 0.8% | 0hPa | 0V | 08:27:00 | 00:00:00 | 00:00:00 | |
| DL9RDZ-1 | 2026-08-30 12:41:41 | 64.15202 | -22.11144 | 38° | 20km/h | 17651m | -35.5m/s | -45.8°C | 0.8% | 0hPa | 0V | 08:27:00 | 00:00:00 | 00:00:00 | |
| DL9RDZ-1 | 2026-08-30 12:41:31 | 64.15151 | -22.11245 | 54° | 27km/h | 18028m | -35.2m/s | -46.7°C | 0.8% | 0hPa | 0V | 08:27:00 | 00:00:00 | 00:00:00 | |
| DL9RDZ-1 | 2026-08-30 12:41:20 | 64.15105 | -22.11384 | 58° | 24km/h | 18482m | -37.2m/s | -46.0°C | 0.7% | 0hPa | 0V | 08:27:00 | 00:00:00 | 00:00:00 | |
| DL9RDZ-1 | 2026-08-30 12:41:09 | 64.15056 | -22.11492 | 55° | 22km/h | 18888m | -37.9m/s | -46.4°C | 0.7% | 0hPa | 0V | 08:28:00 | 00:00:00 | 00:00:00 | |
| DL9RDZ-1 | 2026-08-30 12:40:59 | 64.15025 | -22.11590 | 74° | 18km/h | 19294m | -37.2m/s | -46.6°C | 0.7% | 0hPa | 0V | 08:28:00 | 00:00:00 | 00:00:00 | |
| DL9RDZ-1 | 2026-08-30 12:40:50 | 64.15005 | -22.11692 | 56° | 13km/h | 19707m | -39.4m/s | -47.1°C | 0.7% | 0hPa | 0V | 08:28:00 | 00:00:00 | 00:00:00 | |
| DL9RDZ-1 | 2026-08-30 12:40:38 | 64.14934 | -22.11756 | 46° | 27km/h | 20185m | -39.8m/s | -47.5°C | 0.8% | 0hPa | 0V | 08:28:00 | 00:00:00 | 00:00:00 | |
| DL9RDZ-1 | 2026-08-30 12:40:28 | 64.14911 | -22.11858 | 57° | 24km/h | 20509m | -36.7m/s | -47.2°C | 0.8% | 0hPa | 0V | 08:28:00 | 00:00:00 | 00:00:00 | |
| DL9RDZ-1 | 2026-08-30 12:40:18 | 64.14885 | -22.11985 | 71° | 26km/h | 20897m | -40.3m/s | -46.5°C | 0.7% | 0hPa | 0V | 08:28:00 | 00:00:00 | 00:00:00 | |
| DL9RDZ-1 | 2026-08-30 12:40:04 | 64.14848 | -22.12133 | 41° | 22km/h | 21521m | -42.7m/s | -46.9°C | 0.7% | 0hPa | 0V | 08:28:00 | 00:00:00 | 00:00:00 | |
| DL9RDZ-1 | 2026-08-30 12:39:38 | 64.14773 | -22.12439 | 92° | 26km/h | 22530m | -46.2m/s | -48.2°C | 0.7% | 0hPa | 0V | 08:28:00 | 00:00:00 | 00:00:00 | |
| DL9RDZ-1 | 2026-08-30 12:39:28 | 64.14767 | -22.12542 | 47° | 16km/h | 23027m | -44.6m/s | -49.2°C | 0.9% | 0hPa | 0V | 00:00:00 | 00:00:00 | 00:00:00 | |
| DL9RDZ-1 | 2026-08-30 12:39:17 | 64.14730 | -22.12655 | 79° | 20km/h | 23521m | -49.8m/s | -46.5°C | 0.7% | 0hPa | 0V | 00:00:00 | 00:00:00 | 00:00:00 | |
| DL9RDZ-1 | 2026-08-30 12:39:05 | 64.14712 | -22.12787 | 79° | 24km/h | 24103m | -46.6m/s | -46.0°C | 0.6% | 0hPa | 0V | 00:00:00 | 00:00:00 | 00:00:00 | |
| DL9RDZ-1 | 2026-08-30 12:37:53 | 64.14632 | -22.13057 | 65° | 13km/h | 27802m | 7.2m/s | -47.3°C | 0.7% | 0hPa | 0V | 00:00:00 | 00:00:00 | 00:00:00 | |
| DL9RDZ-1 | 2026-08-30 12:35:33 | 64.14210 | -22.13239 | 340° | 11km/h | 26999m | 4.7m/s | -47.5°C | 0.7% | 0hPa | 0V | 00:00:00 | 00:00:00 | 00:00:00 | |
| DL9RDZ-1 | 2026-08-30 12:32:59 | 64.14169 | -22.13170 | 7° | 13km/h | 26125m | 6.5m/s | -46.6°C | 0.7% | 0hPa | 0V | 00:00:00 | 00:00:00 | 00:00:00 | |
| DL9RDZ-1 | 2026-08-30 12:32:48 | 64.14130 | -22.13177 | 337° | 13km/h | 26067m | 5.8m/s | -47.1°C | 0.7% | 0hPa | 0V | 00:00:00 | 00:00:00 | 00:00:00 | |
| DL9RDZ-1 | 2026-08-30 12:32:38 | 64.14095 | -22.13193 | 39° | 13km/h | 26010m | 5.1m/s | -47.3°C | 0.7% | 0hPa | 0V | 00:00:00 | 00:00:00 | 00:00:00 | |
| DL9RDZ-1 | 2026-08-30 12:32:28 | 64.14078 | -22.13190 | 14° | 15km/h | 25947m | 6.2m/s | -47.5°C | 0.7% | 0hPa | 0V | 00:00:00 | 00:00:00 | 00:00:00 | |
| DL9RDZ-1 | 2026-08-30 12:30:34 | 64.14186 | -22.13681 | 113° | 22km/h | 25272m | 6.2m/s | -47.3°C | 0.7% | 0hPa | 0V | 00:00:00 | 00:00:00 | 00:00:00 | |
| DL9RDZ-1 | 2026-08-30 12:30:23 | 64.14169 | -22.13859 | 107° | 18km/h | 25198m | 7.1m/s | -47.5°C | 0.7% | 0hPa | 0V | 00:00:00 | 00:00:00 | 00:00:00 | |
| DL9RDZ-1 | 2026-08-30 12:30:10 | 64.14158 | -22.14027 | 90° | 18km/h | 25130m | 6.4m/s | -47.4°C | 0.7% | 0hPa | 0V | 00:00:00 | 00:00:00 | 00:00:00 | |
| DL9RDZ-1 | 2026-08-30 12:29:45 | 64.14105 | -22.14266 | 56° | 24km/h | 24982m | 6.1m/s | -47.0°C | 0.7% | 0hPa | 0V | 00:00:00 | 00:00:00 | 00:00:00 | |
| DL9RDZ-1 | 2026-08-30 12:29:30 | 64.14059 | -22.14356 | 42° | 13km/h | 24895m | 6.4m/s | -46.8°C | 0.7% | 0hPa | 0V | 00:00:00 | 00:00:00 | 00:00:00 | |
| DL9RDZ-1 | 2026-08-30 12:29:19 | 64.14034 | -22.14384 | 16° | 11km/h | 24825m | 5.6m/s | -46.6°C | 0.7% | 0hPa | 0V | 00:00:00 | 00:00:00 | 00:00:00 | |
| DL9RDZ-1 | 2026-08-30 12:29:07 | 64.14031 | -22.14409 | 65° | 2km/h | 24763m | 5.3m/s | -46.5°C | 0.7% | 0hPa | 0V | 00:00:00 | 00:00:00 | 00:00:00 | |
| DL9RDZ-1 | 2026-08-30 12:28:51 | 64.14019 | -22.14467 | 66° | 7km/h | 24673m | 6.6m/s | -46.1°C | 0.7% | 0hPa | 0V | 00:00:00 | 00:00:00 | 00:00:00 | |
| DL9RDZ-1 | 2026-08-30 12:25:32 | 64.13852 | -22.16827 | 82° | 29km/h | 23593m | 4.8m/s | -47.5°C | 0.7% | 0hPa | 0V | 00:00:00 | 00:00:00 | 00:00:00 | |
| DL9RDZ-1 | 2026-08-30 12:25:19 | 64.13830 | -22.17019 | 74° | 29km/h | 23522m | 6.6m/s | -47.8°C | 0.8% | 0hPa | 0V | 00:00:00 | 00:00:00 | 00:00:00 | |
| DL9RDZ-1 | 2026-08-30 12:24:58 | 64.13737 | -22.17340 | 43° | 37km/h | 23405m | 5.2m/s | -48.1°C | 0.8% | 0hPa | 0V | 00:00:00 | 00:00:00 | 00:00:00 | |
| DL9RDZ-1 | 2026-08-30 12:21:20 | 64.13307 | -22.19864 | 60° | 24km/h | 22188m | 6.5m/s | -46.4°C | 0.8% | 0hPa | 0V | 00:00:00 | 00:00:00 | 00:00:00 | |
| DL9RDZ-1 | 2026-08-30 12:21:02 | 64.13233 | -22.20060 | 30° | 29km/h | 22093m | 5.7m/s | -45.8°C | 0.7% | 0hPa | 0V | 00:00:00 | 00:00:00 | 00:00:00 | |
| DL9RDZ-1 | 2026-08-30 12:20:38 | 64.13097 | -22.20338 | 44° | 29km/h | 21960m | 5.1m/s | -46.0°C | 0.7% | 0hPa | 0V | 00:00:00 | 00:00:00 | 00:00:00 | |
| DL9RDZ-1 | 2026-08-30 12:19:33 | 64.12788 | -22.20939 | 32° | 29km/h | 21602m | 5.9m/s | -47.1°C | 0.8% | 0hPa | 0V | 00:00:00 | 00:00:00 | 00:00:00 | |
| DL9RDZ-1 | 2026-08-30 12:19:20 | 64.12727 | -22.21087 | 27° | 24km/h | 21532m | 5.3m/s | -47.2°C | 0.8% | 0hPa | 0V | 00:00:00 | 00:00:00 | 00:00:00 | |
| DL9RDZ-1 | 2026-08-30 12:15:28 | 64.11967 | -22.23395 | 40° | 15km/h | 20324m | 3.6m/s | -48.3°C | 0.9% | 0hPa | 0V | 00:00:00 | 00:00:00 | 00:00:00 | |
| DL9RDZ-1 | 2026-08-30 12:15:17 | 64.11916 | -22.23505 | 24° | 20km/h | 20262m | 6.0m/s | -48.1°C | 0.9% | 0hPa | 0V | 00:00:00 | 00:00:00 | 00:00:00 | |
| DL9RDZ-1 | 2026-08-30 12:15:05 | 64.11851 | -22.23579 | 33° | 24km/h | 20199m | 6.1m/s | -48.0°C | 0.9% | 0hPa | 0V | 00:00:00 | 00:00:00 | 00:00:00 | |
| DL9RDZ-1 | 2026-08-30 12:14:30 | 64.11701 | -22.23850 | 44° | 16km/h | 20026m | 4.5m/s | -48.1°C | 0.9% | 0hPa | 0V | 00:00:00 | 00:00:00 | 00:00:00 | |
| DL9RDZ-1 | 2026-08-30 12:11:30 | 64.11423 | -22.25408 | 54° | 22km/h | 19087m | 5.3m/s | -46.4°C | 0.9% | 0hPa | 0V | 00:00:00 | 00:00:00 | 00:00:00 | |
| DL9RDZ-1 | 2026-08-30 12:10:00 | 64.11128 | -22.26373 | 62° | 24km/h | 18632m | 5.0m/s | -46.3°C | 0.9% | 0hPa | 0V | 00:00:00 | 00:00:00 | 00:00:00 | |
| DL9RDZ-1 | 2026-08-30 12:05:45 | 64.10353 | -22.28098 | 305° | 7km/h | 17377m | 4.1m/s | -45.0°C | 0.8% | 0hPa | 0V | 00:00:00 | 00:00:00 | 00:00:00 | |
| DL9RDZ-1 | 2026-08-30 12:05:29 | 64.10364 | -22.28112 | 114° | 5km/h | 17297m | 5.5m/s | -45.2°C | 0.8% | 0hPa | 0V | 00:00:00 | 00:00:00 | 00:00:00 | |
| DL9RDZ-1 | 2026-08-30 12:05:10 | 64.10399 | -22.28268 | 100° | 20km/h | 17203m | 5.5m/s | -45.3°C | 0.9% | 0hPa | 0V | 00:00:00 | 00:00:00 | 00:00:00 | |
| DL9RDZ-1 | 2026-08-30 12:04:58 | 64.10410 | -22.28440 | 99° | 24km/h | 17148m | 4.9m/s | -45.2°C | 0.8% | 0hPa | 0V | 00:00:00 | 00:00:00 | 00:00:00 | |
| DL9RDZ-1 | 2026-08-30 12:04:47 | 64.10407 | -22.28589 | 70° | 24km/h | 17094m | 4.4m/s | -45.7°C | 0.9% | 0hPa | 0V | 00:00:00 | 00:00:00 | 00:00:00 | |
| DL9RDZ-1 | 2026-08-30 12:04:37 | 64.10392 | -22.28735 | 63° | 22km/h | 17044m | 5.1m/s | -46.0°C | 0.9% | 0hPa | 0V | 00:00:00 | 00:00:00 | 00:00:00 | |
| DL9RDZ-1 | 2026-08-30 12:04:24 | 64.10355 | -22.28875 | 56° | 20km/h | 16991m | 4.8m/s | -45.9°C | 0.9% | 0hPa | 0V | 00:00:00 | 00:00:00 | 00:00:00 | |
| DL9RDZ-1 | 2026-08-30 12:04:13 | 64.10322 | -22.28979 | 58° | 22km/h | 16937m | 3.8m/s | -45.9°C | 0.9% | 0hPa | 0V | 00:00:00 | 00:00:00 | 00:00:00 | |
| DL9RDZ-1 | 2026-08-30 12:04:01 | 64.10277 | -22.29090 | 64° | 15km/h | 16883m | 5.1m/s | -45.6°C | 0.9% | 0hPa | 0V | 00:00:00 | 00:00:00 | 00:00:00 | |
| DL9RDZ-1 | 2026-08-30 12:03:50 | 64.10251 | -22.29164 | 55° | 18km/h | 16832m | 5.7m/s | -45.4°C | 0.9% | 0hPa | 0V | 00:00:00 | 00:00:00 | 00:00:00 | |
| DL9RDZ-1 | 2026-08-30 12:03:39 | 64.10229 | -22.29245 | 70° | 13km/h | 16780m | 4.4m/s | -45.3°C | 0.9% | 0hPa | 0V | 00:00:00 | 00:00:00 | 00:00:00 | |
| DL9RDZ-1 | 2026-08-30 12:03:29 | 64.10217 | -22.29334 | 67° | 16km/h | 16732m | 5.4m/s | -45.3°C | 0.9% | 0hPa | 0V | 00:00:00 | 00:00:00 | 00:00:00 | |
| DL9RDZ-1 | 2026-08-30 12:03:18 | 64.10202 | -22.29398 | 70° | 13km/h | 16680m | 3.7m/s | -45.2°C | 0.9% | 0hPa | 0V | 00:00:00 | 00:00:00 | 00:00:00 | |
| DL9RDZ-1 | 2026-08-30 12:03:08 | 64.10206 | -22.29476 | 101° | 13km/h | 16634m | 5.2m/s | -45.3°C | 0.9% | 0hPa | 0V | 00:00:00 | 00:00:00 | 00:00:00 | |
| DL9RDZ-1 | 2026-08-30 12:02:57 | 64.10208 | -22.29545 | 69° | 13km/h | 16581m | 4.1m/s | -45.2°C | 0.9% | 0hPa | 0V | 00:00:00 | 00:00:00 | 00:00:00 | |
| DL9RDZ-1 | 2026-08-30 12:02:46 | 64.10205 | -22.29662 | 71° | 20km/h | 16527m | 5.8m/s | -45.1°C | 0.9% | 0hPa | 0V | 00:00:00 | 00:00:00 | 00:00:00 | |
| DL9RDZ-1 | 2026-08-30 12:02:36 | 64.10202 | -22.29812 | 106° | 20km/h | 16479m | 4.6m/s | -45.1°C | 0.9% | 0hPa | 0V | 00:00:00 | 00:00:00 | 00:00:00 | |
| DL9RDZ-1 | 2026-08-30 12:02:25 | 64.10197 | -22.29944 | 93° | 31km/h | 16429m | 5.2m/s | -45.2°C | 0.9% | 0hPa | 0V | 00:00:00 | 00:00:00 | 00:00:00 | |
| DL9RDZ-1 | 2026-08-30 12:01:39 | 64.10131 | -22.30486 | 32° | 22km/h | 16220m | 4.6m/s | -45.9°C | 0.9% | 0hPa | 0V | 00:00:00 | 00:00:00 | 00:00:00 | |
| DL9RDZ-1 | 2026-08-30 12:01:27 | 64.10092 | -22.30533 | 31° | 16km/h | 16168m | 4.6m/s | -46.0°C | 0.9% | 0hPa | 0V | 00:00:00 | 00:00:00 | 00:00:00 | |
| DL9RDZ-1 | 2026-08-30 12:01:16 | 64.10061 | -22.30564 | 28° | 9km/h | 16116m | 5.4m/s | -45.9°C | 1.0% | 0hPa | 0V | 00:00:00 | 00:00:00 | 00:00:00 | |
| DL9RDZ-1 | 2026-08-30 12:01:06 | 64.10049 | -22.30568 | 46° | 7km/h | 16070m | 4.7m/s | -45.8°C | 0.9% | 0hPa | 0V | 00:00:00 | 00:00:00 | 00:00:00 | |
| DL9RDZ-1 | 2026-08-30 12:00:56 | 64.10045 | -22.30584 | 101° | 7km/h | 16023m | 3.4m/s | -45.6°C | 1.0% | 0hPa | 0V | 00:00:00 | 00:00:00 | 00:00:00 | |
| DL9RDZ-1 | 2026-08-30 12:00:46 | 64.10041 | -22.30618 | 136° | 5km/h | 15973m | 4.2m/s | -45.5°C | 0.9% | 0hPa | 0V | 00:00:00 | 00:00:00 | 00:00:00 | |
| DL9RDZ-1 | 2026-08-30 12:00:35 | 64.10049 | -22.30655 | 105° | 16km/h | 15922m | 5.0m/s | -45.7°C | 0.9% | 0hPa | 0V | 00:00:00 | 00:00:00 | 00:00:00 | |
| DL9RDZ-1 | 2026-08-30 12:00:26 | 64.10062 | -22.30732 | 107° | 18km/h | 15877m | 5.2m/s | -45.5°C | 0.9% | 0hPa | 0V | 00:00:00 | 00:00:00 | 00:00:00 | |
| DL9RDZ-1 | 2026-08-30 12:00:15 | 64.10077 | -22.30843 | 102° | 15km/h | 15822m | 5.0m/s | -45.3°C | 0.9% | 0hPa | 0V | 00:00:00 | 00:00:00 | 00:00:00 | |
| DL9RDZ-1 | 2026-08-30 12:00:04 | 64.10085 | -22.30973 | 94° | 24km/h | 15775m | 3.8m/s | -45.3°C | 1.0% | 0hPa | 0V | 00:00:00 | 00:00:00 | 00:00:00 | |
| DL9RDZ-1 | 2026-08-30 11:59:53 | 64.10099 | -22.31121 | 101° | 27km/h | 15724m | 4.6m/s | -45.1°C | 0.9% | 0hPa | 0V | 00:00:00 | 00:00:00 | 00:00:00 | |
| DL9RDZ-1 | 2026-08-30 11:59:03 | 64.10052 | -22.31885 | 68° | 29km/h | 15495m | 4.0m/s | -44.9°C | 0.9% | 0hPa | 0V | 00:00:00 | 00:00:00 | 00:00:00 | |
| DL9RDZ-1 | 2026-08-30 11:58:53 | 64.10019 | -22.32021 | 60° | 20km/h | 15451m | 3.7m/s | -44.9°C | 0.9% | 0hPa | 0V | 00:00:00 | 00:00:00 | 00:00:00 | |
| DL9RDZ-1 | 2026-08-30 11:58:43 | 64.09985 | -22.32137 | 57° | 22km/h | 15408m | 4.0m/s | -45.3°C | 0.9% | 0hPa | 0V | 00:00:00 | 00:00:00 | 00:00:00 | |
| DL9RDZ-1 | 2026-08-30 11:58:25 | 64.09930 | -22.32261 | 23° | 16km/h | 15328m | 4.0m/s | -45.2°C | 1.0% | 0hPa | 0V | 00:00:00 | 00:00:00 | 00:00:00 | |
| DL9RDZ-1 | 2026-08-30 11:58:14 | 64.09899 | -22.32315 | 29° | 9km/h | 15276m | 4.3m/s | -45.1°C | 1.0% | 0hPa | 0V | 00:00:00 | 00:00:00 | 00:00:00 | |
| DL9RDZ-1 | 2026-08-30 11:58:04 | 64.09877 | -22.32362 | 41° | 11km/h | 15231m | 4.0m/s | -45.1°C | 1.0% | 0hPa | 0V | 00:00:00 | 00:00:00 | 00:00:00 | |
| DL9RDZ-1 | 2026-08-30 11:57:53 | 64.09862 | -22.32411 | 58° | 11km/h | 15182m | 4.2m/s | -45.1°C | 1.0% | 0hPa | 0V | 00:00:00 | 00:00:00 | 00:00:00 | |
| DL9RDZ-1 | 2026-08-30 11:57:43 | 64.09849 | -22.32458 | 73° | 9km/h | 15136m | 5.0m/s | -45.3°C | 1.0% | 0hPa | 0V | 00:00:00 | 00:00:00 | 00:00:00 | |
| DL9RDZ-1 | 2026-08-30 11:57:33 | 64.09836 | -22.32511 | 51° | 15km/h | 15092m | 4.6m/s | -45.3°C | 1.0% | 0hPa | 0V | 00:00:00 | 00:00:00 | 00:00:00 | |
| DL9RDZ-1 | 2026-08-30 11:57:22 | 64.09828 | -22.32592 | 76° | 13km/h | 15044m | 4.2m/s | -45.4°C | 1.0% | 0hPa | 0V | 00:00:00 | 00:00:00 | 00:00:00 | |
| DL9RDZ-1 | 2026-08-30 11:57:12 | 64.09811 | -22.32659 | 64° | 11km/h | 14999m | 4.6m/s | -45.4°C | 1.0% | 0hPa | 0V | 00:00:00 | 00:00:00 | 00:00:00 | |
| DL9RDZ-1 | 2026-08-30 11:56:37 | 64.09779 | -22.32806 | 116° | 9km/h | 14838m | 3.9m/s | -44.6°C | 1.0% | 0hPa | 0V | 00:00:00 | 00:00:00 | 00:00:00 | |
| DL9RDZ-1 | 2026-08-30 11:56:26 | 64.09779 | -22.32886 | 116° | 13km/h | 14788m | 4.7m/s | -44.3°C | 1.0% | 0hPa | 0V | 00:00:00 | 00:00:00 | 00:00:00 | |
| DL9RDZ-1 | 2026-08-30 11:56:16 | 64.09783 | -22.32975 | 85° | 18km/h | 14744m | 5.2m/s | -44.3°C | 1.0% | 0hPa | 0V | 00:00:00 | 00:00:00 | 00:00:00 | |
| DL9RDZ-1 | 2026-08-30 11:56:05 | 64.09790 | -22.33097 | 88° | 27km/h | 14694m | 4.9m/s | -44.2°C | 1.0% | 0hPa | 0V | 00:00:00 | 00:00:00 | 00:00:00 | |
| DL9RDZ-1 | 2026-08-30 11:55:54 | 64.09792 | -22.33253 | 89° | 20km/h | 14645m | 3.9m/s | -44.2°C | 1.0% | 0hPa | 0V | 00:00:00 | 00:00:00 | 00:00:00 | |
| DL9RDZ-1 | 2026-08-30 11:55:44 | 64.09792 | -22.33403 | 87° | 29km/h | 14596m | 4.4m/s | -44.4°C | 1.0% | 0hPa | 0V | 00:00:00 | 00:00:00 | 00:00:00 | |
| DL9RDZ-1 | 2026-08-30 11:55:33 | 64.09779 | -22.33556 | 81° | 27km/h | 14554m | 3.4m/s | -44.3°C | 1.0% | 0hPa | 0V | 00:00:00 | 00:00:00 | 00:00:00 | |
| DL9RDZ-1 | 2026-08-30 11:55:23 | 64.09771 | -22.33721 | 74° | 22km/h | 14510m | 3.8m/s | -44.3°C | 1.0% | 0hPa | 0V | 00:00:00 | 00:00:00 | 00:00:00 | |
| DL9RDZ-1 | 2026-08-30 11:55:12 | 64.09755 | -22.33882 | 73° | 24km/h | 14460m | 3.5m/s | -44.4°C | 1.0% | 0hPa | 0V | 00:00:00 | 00:00:00 | 00:00:00 | |
| DL9RDZ-1 | 2026-08-30 11:55:02 | 64.09743 | -22.34011 | 84° | 24km/h | 14416m | 3.6m/s | -44.2°C | 1.0% | 0hPa | 0V | 00:00:00 | 00:00:00 | 00:00:00 | |
| DL9RDZ-1 | 2026-08-30 11:54:51 | 64.09728 | -22.34109 | 76° | 16km/h | 14365m | 3.6m/s | -44.1°C | 1.0% | 0hPa | 0V | 00:00:00 | 00:00:00 | 00:00:00 | |
| DL9RDZ-1 | 2026-08-30 11:53:51 | 64.09703 | -22.34664 | 103° | 18km/h | 14093m | 4.4m/s | -43.9°C | 1.0% | 0hPa | 0V | 00:00:00 | 00:00:00 | 00:00:00 | |
| DL9RDZ-1 | 2026-08-30 11:53:41 | 64.09711 | -22.34784 | 88° | 20km/h | 14050m | 4.1m/s | -43.8°C | 1.0% | 0hPa | 0V | 00:00:00 | 00:00:00 | 00:00:00 | |
| DL9RDZ-1 | 2026-08-30 11:53:10 | 64.09692 | -22.35159 | 75° | 27km/h | 13914m | 3.8m/s | -43.6°C | 1.0% | 0hPa | 0V | 00:00:00 | 00:00:00 | 00:00:00 | |
| DL9RDZ-1 | 2026-08-30 11:53:00 | 64.09679 | -22.35290 | 81° | 20km/h | 13870m | 4.7m/s | -43.5°C | 1.0% | 0hPa | 0V | 00:00:00 | 00:00:00 | 00:00:00 | |
| DL9RDZ-1 | 2026-08-30 11:52:50 | 64.09656 | -22.35418 | 59° | 29km/h | 13826m | 4.0m/s | -43.6°C | 1.0% | 0hPa | 0V | 00:00:00 | 00:00:00 | 00:00:00 | |
| DL9RDZ-1 | 2026-08-30 11:52:40 | 64.09640 | -22.35518 | 75° | 20km/h | 13786m | 3.8m/s | -43.7°C | 1.0% | 0hPa | 0V | 00:00:00 | 00:00:00 | 00:00:00 | |
| DL9RDZ-1 | 2026-08-30 11:52:29 | 64.09612 | -22.35647 | 63° | 24km/h | 13740m | 3.2m/s | -43.9°C | 1.1% | 0hPa | 0V | 00:00:00 | 00:00:00 | 00:00:00 | |
| DL9RDZ-1 | 2026-08-30 11:52:18 | 64.09579 | -22.35784 | 63° | 24km/h | 13691m | 3.8m/s | -43.8°C | 1.1% | 0hPa | 0V | 00:00:00 | 00:00:00 | 00:00:00 | |
| DL9RDZ-1 | 2026-08-30 11:52:07 | 64.09548 | -22.35929 | 64° | 27km/h | 13644m | 4.7m/s | -43.6°C | 1.1% | 0hPa | 0V | 00:00:00 | 00:00:00 | 00:00:00 | |
| DL9RDZ-1 | 2026-08-30 11:51:57 | 64.09521 | -22.36066 | 70° | 24km/h | 13601m | 4.1m/s | -43.5°C | 1.0% | 0hPa | 0V | 00:00:00 | 00:00:00 | 00:00:00 | |
| DL9RDZ-1 | 2026-08-30 11:51:46 | 64.09501 | -22.36196 | 95° | 16km/h | 13554m | 4.2m/s | -43.7°C | 1.0% | 0hPa | 0V | 00:00:00 | 00:00:00 | 00:00:00 | |
| DL9RDZ-1 | 2026-08-30 11:51:36 | 64.09489 | -22.36304 | 71° | 18km/h | 13511m | 3.1m/s | -43.8°C | 1.1% | 0hPa | 0V | 00:00:00 | 00:00:00 | 00:00:00 | |
| DL9RDZ-1 | 2026-08-30 11:51:25 | 64.09484 | -22.36453 | 92° | 24km/h | 13466m | 4.2m/s | -43.9°C | 1.1% | 0hPa | 0V | 00:00:00 | 00:00:00 | 00:00:00 | |
| DL9RDZ-1 | 2026-08-30 11:51:14 | 64.09486 | -22.36610 | 94° | 22km/h | 13419m | 3.9m/s | -44.2°C | 1.2% | 0hPa | 0V | 00:00:00 | 00:00:00 | 00:00:00 | |
| DL9RDZ-1 | 2026-08-30 11:51:04 | 64.09483 | -22.36738 | 87° | 29km/h | 13379m | 3.8m/s | -44.3°C | 1.2% | 0hPa | 0V | 00:00:00 | 00:00:00 | 00:00:00 | |
| DL9RDZ-1 | 2026-08-30 11:50:54 | 64.09486 | -22.36903 | 98° | 22km/h | 13331m | 5.1m/s | -44.4°C | 1.2% | 0hPa | 0V | 00:00:00 | 00:00:00 | 00:00:00 | |
| DL9RDZ-1 | 2026-08-30 11:50:39 | 64.09475 | -22.37080 | 85° | 18km/h | 13270m | 4.5m/s | -44.1°C | 1.2% | 0hPa | 0V | 00:00:00 | 00:00:00 | 00:00:00 | |
| DL9RDZ-1 | 2026-08-30 11:50:29 | 64.09456 | -22.37219 | 66° | 24km/h | 13229m | 4.2m/s | -43.9°C | 1.2% | 0hPa | 0V | 00:00:00 | 00:00:00 | 00:00:00 | |
| DL9RDZ-1 | 2026-08-30 11:50:18 | 64.09440 | -22.37359 | 82° | 26km/h | 13179m | 4.1m/s | -43.8°C | 1.2% | 0hPa | 0V | 00:00:00 | 00:00:00 | 00:00:00 | |
| DL9RDZ-1 | 2026-08-30 11:50:08 | 64.09427 | -22.37502 | 78° | 22km/h | 13130m | 3.6m/s | -44.0°C | 1.2% | 0hPa | 0V | 00:00:00 | 00:00:00 | 00:00:00 | |
| DL9RDZ-1 | 2026-08-30 11:49:57 | 64.09408 | -22.37609 | 60° | 26km/h | 13086m | 4.8m/s | -44.0°C | 1.2% | 0hPa | 0V | 00:00:00 | 00:00:00 | 00:00:00 | |
| DL9RDZ-1 | 2026-08-30 11:49:37 | 64.09351 | -22.37828 | 56° | 22km/h | 13003m | 3.2m/s | -43.9°C | 1.2% | 0hPa | 0V | 00:00:00 | 00:00:00 | 00:00:00 | |
| DL9RDZ-1 | 2026-08-30 11:49:28 | 64.09326 | -22.37943 | 68° | 20km/h | 12959m | 4.9m/s | -44.1°C | 1.2% | 0hPa | 0V | 00:00:00 | 00:00:00 | 00:00:00 | |
| DL9RDZ-1 | 2026-08-30 11:49:16 | 64.09320 | -22.38070 | 82° | 22km/h | 12910m | 4.3m/s | -44.1°C | 1.3% | 0hPa | 0V | 00:00:00 | 00:00:00 | 00:00:00 | |
| DL9RDZ-1 | 2026-08-30 11:48:25 | 64.09319 | -22.38730 | 86° | 18km/h | 12696m | 3.8m/s | -43.7°C | 1.3% | 0hPa | 0V | 00:00:00 | 00:00:00 | 00:00:00 | |
| DL9RDZ-1 | 2026-08-30 11:48:15 | 64.09314 | -22.38882 | 85° | 31km/h | 12648m | 3.6m/s | -43.5°C | 1.3% | 0hPa | 0V | 00:00:00 | 00:00:00 | 00:00:00 | |
| DL9RDZ-1 | 2026-08-30 11:48:03 | 64.09298 | -22.39056 | 78° | 27km/h | 12602m | 4.0m/s | -43.4°C | 1.3% | 0hPa | 0V | 00:00:00 | 00:00:00 | 00:00:00 | |
| DL9RDZ-1 | 2026-08-30 11:47:52 | 64.09285 | -22.39215 | 77° | 24km/h | 12558m | 4.8m/s | -43.3°C | 1.3% | 0hPa | 0V | 00:00:00 | 00:00:00 | 00:00:00 | |
| DL9RDZ-1 | 2026-08-30 11:47:41 | 64.09262 | -22.39346 | 68° | 20km/h | 12513m | 4.3m/s | -43.6°C | 1.3% | 0hPa | 0V | 00:00:00 | 00:00:00 | 00:00:00 | |
| DL9RDZ-1 | 2026-08-30 11:47:30 | 64.09226 | -22.39499 | 56° | 31km/h | 12467m | 4.3m/s | -43.5°C | 1.3% | 0hPa | 0V | 00:00:00 | 00:00:00 | 00:00:00 | |
| DL9RDZ-1 | 2026-08-30 11:47:20 | 64.09182 | -22.39660 | 53° | 31km/h | 12427m | 4.2m/s | -43.5°C | 1.2% | 0hPa | 0V | 00:00:00 | 00:00:00 | 00:00:00 | |
| DL9RDZ-1 | 2026-08-30 11:46:49 | 64.09071 | -22.40018 | 72° | 20km/h | 12299m | 3.4m/s | -43.7°C | 1.2% | 0hPa | 0V | 00:00:00 | 00:00:00 | 00:00:00 | |
| DL9RDZ-1 | 2026-08-30 11:46:38 | 64.09055 | -22.40151 | 91° | 20km/h | 12254m | 3.9m/s | -43.5°C | 1.2% | 0hPa | 0V | 00:00:00 | 00:00:00 | 00:00:00 | |
| DL9RDZ-1 | 2026-08-30 11:46:27 | 64.09048 | -22.40286 | 69° | 22km/h | 12207m | 3.6m/s | -43.4°C | 1.2% | 0hPa | 0V | 00:00:00 | 00:00:00 | 00:00:00 | |
| DL9RDZ-1 | 2026-08-30 11:46:17 | 64.09038 | -22.40431 | 79° | 27km/h | 12164m | 3.9m/s | -43.5°C | 1.2% | 0hPa | 0V | 00:00:00 | 00:00:00 | 00:00:00 | |
| DL9RDZ-1 | 2026-08-30 11:46:08 | 64.09030 | -22.40581 | 79° | 29km/h | 12121m | 3.8m/s | -43.3°C | 1.2% | 0hPa | 0V | 00:00:00 | 00:00:00 | 00:00:00 | |
| DL9RDZ-1 | 2026-08-30 11:45:57 | 64.09019 | -22.40759 | 84° | 31km/h | 12080m | 4.5m/s | -43.4°C | 1.3% | 0hPa | 0V | 00:00:00 | 00:00:00 | 00:00:00 | |
| DL9RDZ-1 | 2026-08-30 11:45:37 | 64.08982 | -22.41111 | 76° | 24km/h | 11995m | 3.7m/s | -43.2°C | 1.2% | 0hPa | 0V | 00:00:00 | 00:00:00 | 00:00:00 | |
| DL9RDZ-1 | 2026-08-30 11:45:26 | 64.08965 | -22.41255 | 81° | 22km/h | 11951m | 4.5m/s | -43.1°C | 1.2% | 0hPa | 0V | 00:00:00 | 00:00:00 | 00:00:00 | |
| DL9RDZ-1 | 2026-08-30 11:45:16 | 64.08957 | -22.41402 | 88° | 24km/h | 11905m | 5.1m/s | -43.2°C | 1.2% | 0hPa | 0V | 00:00:00 | 00:00:00 | 00:00:00 | |
| DL9RDZ-1 | 2026-08-30 11:45:04 | 64.08942 | -22.41560 | 73° | 26km/h | 11857m | 5.2m/s | -43.5°C | 1.3% | 0hPa | 0V | 00:00:00 | 00:00:00 | 00:00:00 | |
| DL9RDZ-1 | 2026-08-30 11:44:53 | 64.08922 | -22.41725 | 63° | 31km/h | 11812m | 3.8m/s | -43.3°C | 1.3% | 0hPa | 0V | 00:00:00 | 00:00:00 | 00:00:00 | |
| DL9RDZ-1 | 2026-08-30 11:44:42 | 64.08890 | -22.41882 | 67° | 26km/h | 11766m | 4.8m/s | -43.3°C | 1.3% | 0hPa | 0V | 00:00:00 | 00:00:00 | 00:00:00 | |
| DL9RDZ-1 | 2026-08-30 11:44:33 | 64.08859 | -22.42027 | 58° | 29km/h | 11724m | 4.5m/s | -43.1°C | 1.3% | 0hPa | 0V | 00:00:00 | 00:00:00 | 00:00:00 | |
| DL9RDZ-1 | 2026-08-30 11:44:21 | 64.08827 | -22.42190 | 65° | 29km/h | 11677m | 3.9m/s | -43.2°C | 1.3% | 0hPa | 0V | 00:00:00 | 00:00:00 | 00:00:00 | |
| DL9RDZ-1 | 2026-08-30 11:44:11 | 64.08803 | -22.42336 | 70° | 29km/h | 11636m | 4.5m/s | -43.2°C | 1.3% | 0hPa | 0V | 00:00:00 | 00:00:00 | 00:00:00 | |
| DL9RDZ-1 | 2026-08-30 11:44:00 | 64.08775 | -22.42515 | 74° | 31km/h | 11589m | 4.4m/s | -43.2°C | 1.3% | 0hPa | 0V | 00:00:00 | 00:00:00 | 00:00:00 | |
| DL9RDZ-1 | 2026-08-30 11:43:50 | 64.08739 | -22.42713 | 66° | 40km/h | 11543m | 4.6m/s | -43.2°C | 1.3% | 0hPa | 0V | 00:00:00 | 00:00:00 | 00:00:00 | |
| DL9RDZ-1 | 2026-08-30 11:43:39 | 64.08697 | -22.42944 | 70° | 42km/h | 11496m | 4.1m/s | -43.1°C | 1.4% | 0hPa | 0V | 00:00:00 | 00:00:00 | 00:00:00 | |
| DL9RDZ-1 | 2026-08-30 11:43:29 | 64.08669 | -22.43135 | 73° | 35km/h | 11451m | 3.9m/s | -43.0°C | 1.3% | 0hPa | 0V | 00:00:00 | 00:00:00 | 00:00:00 | |
| DL9RDZ-1 | 2026-08-30 11:43:18 | 64.08636 | -22.43362 | 69° | 33km/h | 11408m | 4.4m/s | -42.7°C | 1.3% | 0hPa | 0V | 00:00:00 | 00:00:00 | 00:00:00 | |
| DL9RDZ-1 | 2026-08-30 11:43:08 | 64.08595 | -22.43549 | 59° | 42km/h | 11364m | 4.9m/s | -43.1°C | 1.4% | 0hPa | 0V | 00:00:00 | 00:00:00 | 00:00:00 | |
| DL9RDZ-1 | 2026-08-30 11:42:47 | 64.08492 | -22.43958 | 70° | 37km/h | 11278m | 4.1m/s | -43.3°C | 1.4% | 0hPa | 0V | 00:00:00 | 00:00:00 | 00:00:00 | |
| DL9RDZ-1 | 2026-08-30 11:42:37 | 64.08454 | -22.44162 | 65° | 38km/h | 11238m | 3.5m/s | -43.4°C | 1.4% | 0hPa | 0V | 00:00:00 | 00:00:00 | 00:00:00 | |
| DL9RDZ-1 | 2026-08-30 11:42:26 | 64.08415 | -22.44333 | 60° | 31km/h | 11190m | 3.8m/s | -43.3°C | 1.5% | 0hPa | 0V | 00:00:00 | 00:00:00 | 00:00:00 | |
| DL9RDZ-1 | 2026-08-30 11:42:14 | 64.08372 | -22.44498 | 49° | 27km/h | 11141m | 3.9m/s | -43.2°C | 1.5% | 0hPa | 0V | 00:00:00 | 00:00:00 | 00:00:00 | |
| DL9RDZ-1 | 2026-08-30 11:42:05 | 64.08335 | -22.44623 | 68° | 24km/h | 11099m | 4.3m/s | -43.2°C | 1.5% | 0hPa | 0V | 00:00:00 | 00:00:00 | 00:00:00 | |
| DL9RDZ-1 | 2026-08-30 11:41:54 | 64.08305 | -22.44730 | 52° | 18km/h | 11053m | 4.2m/s | -43.0°C | 1.5% | 0hPa | 0V | 00:00:00 | 00:00:00 | 00:00:00 | |
| DL9RDZ-1 | 2026-08-30 11:41:42 | 64.08272 | -22.44844 | 56° | 26km/h | 11008m | 4.1m/s | -43.0°C | 1.5% | 0hPa | 0V | 00:00:00 | 00:00:00 | 00:00:00 | |
| DL9RDZ-1 | 2026-08-30 11:41:31 | 64.08231 | -22.44985 | 62° | 31km/h | 10964m | 4.3m/s | -42.9°C | 1.6% | 0hPa | 0V | 00:00:00 | 00:00:00 | 00:00:00 | |
| DL9RDZ-1 | 2026-08-30 11:41:21 | 64.08199 | -22.45135 | 65° | 37km/h | 10925m | 4.2m/s | -43.0°C | 1.7% | 0hPa | 0V | 00:00:00 | 00:00:00 | 00:00:00 | |
| DL9RDZ-1 | 2026-08-30 11:41:10 | 64.08160 | -22.45321 | 58° | 33km/h | 10881m | 4.8m/s | -43.7°C | 1.9% | 0hPa | 0V | 00:00:00 | 00:00:00 | 00:00:00 | |
| DL9RDZ-1 | 2026-08-30 11:41:00 | 64.08118 | -22.45461 | 60° | 26km/h | 10839m | 4.6m/s | -43.5°C | 2.0% | 0hPa | 0V | 00:00:00 | 00:00:00 | 00:00:00 | |
| DL9RDZ-1 | 2026-08-30 11:40:49 | 64.08067 | -22.45601 | 44° | 27km/h | 10795m | 5.1m/s | -43.8°C | 2.1% | 0hPa | 0V | 00:00:00 | 00:00:00 | 00:00:00 | |
| DL9RDZ-1 | 2026-08-30 11:40:39 | 64.08031 | -22.45725 | 56° | 26km/h | 10752m | 2.7m/s | -43.8°C | 2.0% | 0hPa | 0V | 00:00:00 | 00:00:00 | 00:00:00 | |
| DL9RDZ-1 | 2026-08-30 11:40:28 | 64.07986 | -22.45870 | 57° | 33km/h | 10710m | 3.6m/s | -44.3°C | 1.9% | 0hPa | 0V | 00:00:00 | 00:00:00 | 00:00:00 | |
| DL9RDZ-1 | 2026-08-30 11:40:19 | 64.07933 | -22.46010 | 48° | 31km/h | 10672m | 3.9m/s | -44.3°C | 2.0% | 0hPa | 0V | 00:00:00 | 00:00:00 | 00:00:00 | |
| DL9RDZ-1 | 2026-08-30 11:40:09 | 64.07890 | -22.46127 | 53° | 24km/h | 10631m | 3.2m/s | -44.6°C | 2.0% | 0hPa | 0V | 00:00:00 | 00:00:00 | 00:00:00 | |
| DL9RDZ-1 | 2026-08-30 11:39:57 | 64.07846 | -22.46236 | 37° | 24km/h | 10586m | 3.7m/s | -44.4°C | 2.1% | 0hPa | 0V | 00:00:00 | 00:00:00 | 00:00:00 | |
| DL9RDZ-1 | 2026-08-30 11:39:44 | 64.07799 | -22.46356 | 48° | 18km/h | 10536m | 4.1m/s | -44.9°C | 2.3% | 0hPa | 0V | 00:00:00 | 00:00:00 | 00:00:00 | |
| DL9RDZ-1 | 2026-08-30 11:39:34 | 64.07766 | -22.46421 | 43° | 18km/h | 10496m | 4.2m/s | -45.0°C | 2.4% | 0hPa | 0V | 00:00:00 | 00:00:00 | 00:00:00 | |
| DL9RDZ-1 | 2026-08-30 11:39:24 | 64.07724 | -22.46498 | 43° | 26km/h | 10456m | 2.4m/s | -45.3°C | 2.7% | 0hPa | 0V | 00:00:00 | 00:00:00 | 00:00:00 | |
| DL9RDZ-1 | 2026-08-30 11:39:13 | 64.07686 | -22.46610 | 53° | 22km/h | 10410m | 3.7m/s | -45.5°C | 2.9% | 0hPa | 0V | 00:00:00 | 00:00:00 | 00:00:00 | |
| DL9RDZ-1 | 2026-08-30 11:39:02 | 64.07654 | -22.46686 | 56° | 15km/h | 10365m | 3.2m/s | -45.3°C | 3.1% | 0hPa | 0V | 00:00:00 | 00:00:00 | 00:00:00 | |
| DL9RDZ-1 | 2026-08-30 11:38:51 | 64.07615 | -22.46774 | 62° | 22km/h | 10322m | 4.2m/s | -45.8°C | 3.4% | 0hPa | 0V | 00:00:00 | 00:00:00 | 00:00:00 | |
| DL9RDZ-1 | 2026-08-30 11:38:40 | 64.07584 | -22.46873 | 41° | 18km/h | 10278m | 4.4m/s | -46.1°C | 3.7% | 0hPa | 0V | 00:00:00 | 00:00:00 | 00:00:00 | |
| DL9RDZ-1 | 2026-08-30 11:38:29 | 64.07547 | -22.46971 | 61° | 20km/h | 10233m | 5.2m/s | -46.4°C | 4.0% | 0hPa | 0V | 00:00:00 | 00:00:00 | 00:00:00 | |
| DL9RDZ-1 | 2026-08-30 11:38:18 | 64.07513 | -22.47087 | 68° | 24km/h | 10188m | 3.3m/s | -46.5°C | 4.2% | 0hPa | 0V | 00:00:00 | 00:00:00 | 00:00:00 | |
| DL9RDZ-1 | 2026-08-30 11:38:07 | 64.07477 | -22.47231 | 55° | 29km/h | 10144m | 3.8m/s | -47.1°C | 4.6% | 0hPa | 0V | 00:00:00 | 00:00:00 | 00:00:00 | |
| DL9RDZ-1 | 2026-08-30 11:37:57 | 64.07422 | -22.47370 | 40° | 31km/h | 10101m | 3.1m/s | -47.3°C | 5.4% | 0hPa | 0V | 00:00:00 | 00:00:00 | 00:00:00 | |
| DL9RDZ-1 | 2026-08-30 11:37:46 | 64.07366 | -22.47516 | 57° | 35km/h | 10057m | 4.6m/s | -47.7°C | 6.6% | 0hPa | 0V | 00:00:00 | 00:00:00 | 00:00:00 | |
| DL9RDZ-1 | 2026-08-30 11:37:36 | 64.07317 | -22.47678 | 49° | 33km/h | 10016m | 5.2m/s | -48.3°C | 7.8% | 0hPa | 0V | 00:00:00 | 00:00:00 | 00:00:00 | |
| DL9RDZ-1 | 2026-08-30 11:37:25 | 64.07253 | -22.47832 | 34° | 31km/h | 9970m | 3.7m/s | -48.4°C | 8.4% | 0hPa | 0V | 00:00:00 | 00:00:00 | 00:00:00 | |
| DL9RDZ-1 | 2026-08-30 11:37:14 | 64.07185 | -22.47948 | 37° | 29km/h | 9929m | 4.5m/s | -48.5°C | 8.9% | 0hPa | 0V | 00:00:00 | 00:00:00 | 00:00:00 | |
| DL9RDZ-1 | 2026-08-30 11:37:04 | 64.07120 | -22.48054 | 38° | 33km/h | 9889m | 4.4m/s | -48.8°C | 10.6% | 0hPa | 0V | 00:00:00 | 00:00:00 | 00:00:00 | |
| DL9RDZ-1 | 2026-08-30 11:36:53 | 64.07050 | -22.48174 | 38° | 33km/h | 9843m | 4.1m/s | -49.2°C | 12.8% | 0hPa | 0V | 00:00:00 | 00:00:00 | 00:00:00 | |
| DL9RDZ-1 | 2026-08-30 11:36:42 | 64.06991 | -22.48313 | 48° | 27km/h | 9797m | 4.7m/s | -49.5°C | 15.5% | 0hPa | 0V | 00:00:00 | 00:00:00 | 00:00:00 | |
| DL9RDZ-1 | 2026-08-30 11:36:31 | 64.06949 | -22.48441 | 49° | 27km/h | 9754m | 4.1m/s | -50.2°C | 18.0% | 0hPa | 0V | 00:00:00 | 00:00:00 | 00:00:00 | |
| DL9RDZ-1 | 2026-08-30 11:36:21 | 64.06890 | -22.48557 | 37° | 29km/h | 9713m | 4.5m/s | -50.5°C | 20.0% | 0hPa | 0V | 00:00:00 | 00:00:00 | 00:00:00 | |
| DL9RDZ-1 | 2026-08-30 11:36:10 | 64.06816 | -22.48684 | 30° | 35km/h | 9667m | 4.1m/s | -50.9°C | 22.6% | 0hPa | 0V | 00:00:00 | 00:00:00 | 00:00:00 | |
| DL9RDZ-1 | 2026-08-30 11:36:00 | 64.06744 | -22.48779 | 35° | 31km/h | 9624m | 4.2m/s | -51.0°C | 23.5% | 0hPa | 0V | 00:00:00 | 00:00:00 | 00:00:00 | |
| DL9RDZ-1 | 2026-08-30 11:35:49 | 64.06664 | -22.48898 | 39° | 35km/h | 9577m | 4.8m/s | -51.1°C | 24.8% | 0hPa | 0V | 00:00:00 | 00:00:00 | 00:00:00 | |
| DL9RDZ-1 | 2026-08-30 11:35:38 | 64.06589 | -22.49027 | 36° | 40km/h | 9535m | 4.8m/s | -51.2°C | 25.3% | 0hPa | 0V | 00:00:00 | 00:00:00 | 00:00:00 | |
| DL9RDZ-1 | 2026-08-30 11:35:29 | 64.06504 | -22.49142 | 26° | 38km/h | 9494m | 4.2m/s | -51.2°C | 26.1% | 0hPa | 0V | 00:00:00 | 00:00:00 | 00:00:00 | |
| DL9RDZ-1 | 2026-08-30 11:35:18 | 64.06415 | -22.49240 | 20° | 37km/h | 9446m | 3.4m/s | -50.9°C | 26.0% | 0hPa | 0V | 00:00:00 | 00:00:00 | 00:00:00 | |
| DL9RDZ-1 | 2026-08-30 11:35:06 | 64.06327 | -22.49356 | 36° | 42km/h | 9401m | 4.4m/s | -51.0°C | 27.2% | 0hPa | 0V | 00:00:00 | 00:00:00 | 00:00:00 | |
| DL9RDZ-1 | 2026-08-30 11:34:55 | 64.06242 | -22.49492 | 35° | 37km/h | 9356m | 4.2m/s | -51.0°C | 26.8% | 0hPa | 0V | 00:00:00 | 00:00:00 | 00:00:00 | |
| DL9RDZ-1 | 2026-08-30 11:34:45 | 64.06165 | -22.49598 | 27° | 35km/h | 9312m | 4.1m/s | -50.9°C | 27.2% | 0hPa | 0V | 00:00:00 | 00:00:00 | 00:00:00 | |
| DL9RDZ-1 | 2026-08-30 11:34:34 | 64.06075 | -22.49698 | 30° | 35km/h | 9266m | 5.0m/s | -50.9°C | 28.6% | 0hPa | 0V | 00:00:00 | 00:00:00 | 00:00:00 | |
| DL9RDZ-1 | 2026-08-30 11:34:25 | 64.05996 | -22.49792 | 28° | 38km/h | 9224m | 3.7m/s | -50.9°C | 31.1% | 0hPa | 0V | 00:00:00 | 00:00:00 | 00:00:00 | |
| DL9RDZ-1 | 2026-08-30 11:34:14 | 64.05917 | -22.49884 | 25° | 37km/h | 9182m | 3.8m/s | -51.1°C | 33.7% | 0hPa | 0V | 00:00:00 | 00:00:00 | 00:00:00 | |
| DL9RDZ-1 | 2026-08-30 11:34:04 | 64.05829 | -22.49977 | 28° | 37km/h | 9138m | 4.0m/s | -51.2°C | 34.9% | 0hPa | 0V | 00:00:00 | 00:00:00 | 00:00:00 | |
| DL9RDZ-1 | 2026-08-30 11:33:53 | 64.05751 | -22.50080 | 33° | 38km/h | 9096m | 4.0m/s | -51.1°C | 35.9% | 0hPa | 0V | 00:00:00 | 00:00:00 | 00:00:00 | |
| DL9RDZ-1 | 2026-08-30 11:33:43 | 64.05676 | -22.50201 | 35° | 35km/h | 9052m | 4.5m/s | -50.9°C | 37.1% | 0hPa | 0V | 00:00:00 | 00:00:00 | 00:00:00 | |
| DL9RDZ-1 | 2026-08-30 11:33:33 | 64.05600 | -22.50320 | 33° | 35km/h | 9012m | 3.6m/s | -50.8°C | 38.0% | 0hPa | 0V | 00:00:00 | 00:00:00 | 00:00:00 | |
| DL9RDZ-1 | 2026-08-30 11:33:23 | 64.05525 | -22.50436 | 27° | 35km/h | 8964m | 3.8m/s | -50.7°C | 39.3% | 0hPa | 0V | 00:00:00 | 00:00:00 | 00:00:00 | |
| DL9RDZ-1 | 2026-08-30 11:33:11 | 64.05436 | -22.50544 | 33° | 37km/h | 8918m | 4.7m/s | -50.5°C | 40.0% | 0hPa | 0V | 00:00:00 | 00:00:00 | 00:00:00 | |
| DL9RDZ-1 | 2026-08-30 11:32:59 | 64.05347 | -22.50670 | 24° | 37km/h | 8869m | 4.1m/s | -50.4°C | 41.7% | 0hPa | 0V | 00:00:00 | 00:00:00 | 00:00:00 | |
| DL9RDZ-1 | 2026-08-30 11:32:49 | 64.05272 | -22.50772 | 30° | 29km/h | 8822m | 4.5m/s | -50.2°C | 42.1% | 0hPa | 0V | 00:00:00 | 00:00:00 | 00:00:00 | |
| DL9RDZ-1 | 2026-08-30 11:32:23 | 64.05092 | -22.50996 | 21° | 35km/h | 8716m | 5.0m/s | -49.4°C | 46.4% | 0hPa | 0V | 00:00:00 | 00:00:00 | 00:00:00 | |
| DL9RDZ-1 | 2026-08-30 11:32:13 | 64.05003 | -22.51093 | 24° | 33km/h | 8669m | 4.3m/s | -49.1°C | 47.7% | 0hPa | 0V | 00:00:00 | 00:00:00 | 00:00:00 | |
| DL9RDZ-1 | 2026-08-30 11:32:02 | 64.04929 | -22.51189 | 34° | 38km/h | 8628m | 3.7m/s | -48.9°C | 49.0% | 0hPa | 0V | 00:00:00 | 00:00:00 | 00:00:00 | |
| DL9RDZ-1 | 2026-08-30 11:31:52 | 64.04852 | -22.51299 | 36° | 37km/h | 8585m | 4.6m/s | -48.6°C | 48.4% | 0hPa | 0V | 00:00:00 | 00:00:00 | 00:00:00 | |
| DL9RDZ-1 | 2026-08-30 11:31:41 | 64.04767 | -22.51412 | 33° | 33km/h | 8544m | 4.1m/s | -48.2°C | 47.4% | 0hPa | 0V | 00:00:00 | 00:00:00 | 00:00:00 | |
| DL9RDZ-1 | 2026-08-30 11:31:20 | 64.04604 | -22.51650 | 27° | 38km/h | 8450m | 5.5m/s | -47.6°C | 46.1% | 0hPa | 0V | 00:00:00 | 00:00:00 | 00:00:00 | |
| DL9RDZ-1 | 2026-08-30 11:31:10 | 64.04517 | -22.51764 | 37° | 38km/h | 8394m | 4.7m/s | -47.2°C | 44.9% | 0hPa | 0V | 00:00:00 | 00:00:00 | 00:00:00 | |
| DL9RDZ-1 | 2026-08-30 11:30:58 | 64.04432 | -22.51890 | 32° | 35km/h | 8340m | 4.9m/s | -46.7°C | 44.3% | 0hPa | 0V | 00:00:00 | 00:00:00 | 00:00:00 | |
| DL9RDZ-1 | 2026-08-30 11:30:47 | 64.04346 | -22.52010 | 32° | 37km/h | 8284m | 5.4m/s | -46.3°C | 43.2% | 0hPa | 0V | 00:00:00 | 00:00:00 | 00:00:00 | |
| DL9RDZ-1 | 2026-08-30 11:30:37 | 64.04266 | -22.52115 | 33° | 40km/h | 8234m | 5.3m/s | -46.0°C | 43.5% | 0hPa | 0V | 00:00:00 | 00:00:00 | 00:00:00 | |
| DL9RDZ-1 | 2026-08-30 11:30:26 | 64.04178 | -22.52235 | 35° | 35km/h | 8176m | 4.9m/s | -45.6°C | 40.8% | 0hPa | 0V | 00:00:00 | 00:00:00 | 00:00:00 | |
| DL9RDZ-1 | 2026-08-30 11:30:17 | 64.04105 | -22.52335 | 36° | 37km/h | 8124m | 5.8m/s | -45.2°C | 32.5% | 0hPa | 0V | 00:00:00 | 00:00:00 | 00:00:00 | |
| DL9RDZ-1 | 2026-08-30 11:30:05 | 64.04025 | -22.52456 | 32° | 35km/h | 8074m | 4.4m/s | -44.9°C | 30.8% | 0hPa | 0V | 00:00:00 | 00:00:00 | 00:00:00 | |
| DL9RDZ-1 | 2026-08-30 11:29:44 | 64.03876 | -22.52723 | 37° | 35km/h | 7984m | 4.5m/s | -44.2°C | 28.3% | 0hPa | 0V | 00:00:00 | 00:00:00 | 00:00:00 | |
| DL9RDZ-1 | 2026-08-30 11:29:33 | 64.03796 | -22.52853 | 36° | 33km/h | 7935m | 4.9m/s | -44.0°C | 27.8% | 0hPa | 0V | 00:00:00 | 00:00:00 | 00:00:00 | |
| DL9RDZ-1 | 2026-08-30 11:29:22 | 64.03729 | -22.52976 | 36° | 35km/h | 7891m | 3.5m/s | -43.8°C | 37.0% | 0hPa | 0V | 00:00:00 | 00:00:00 | 00:00:00 | |
| DL9RDZ-1 | 2026-08-30 11:29:11 | 64.03649 | -22.53081 | 39° | 35km/h | 7847m | 5.7m/s | -43.6°C | 42.6% | 0hPa | 0V | 00:00:00 | 00:00:00 | 00:00:00 | |
| DL9RDZ-1 | 2026-08-30 11:29:00 | 64.03580 | -22.53200 | 28° | 31km/h | 7805m | 5.3m/s | -43.3°C | 38.7% | 0hPa | 0V | 00:00:00 | 00:00:00 | 00:00:00 | |
| DL9RDZ-1 | 2026-08-30 11:28:50 | 64.03516 | -22.53301 | 31° | 37km/h | 7765m | 4.4m/s | -42.8°C | 35.4% | 0hPa | 0V | 00:00:00 | 00:00:00 | 00:00:00 | |
| DL9RDZ-1 | 2026-08-30 11:28:39 | 64.03443 | -22.53408 | 27° | 31km/h | 7721m | 3.3m/s | -42.7°C | 40.7% | 0hPa | 0V | 00:00:00 | 00:00:00 | 00:00:00 | |
| DL9RDZ-1 | 2026-08-30 11:28:28 | 64.03373 | -22.53540 | 43° | 29km/h | 7676m | 3.4m/s | -42.5°C | 45.1% | 0hPa | 0V | 00:00:00 | 00:00:00 | 00:00:00 | |
| DL9RDZ-1 | 2026-08-30 11:28:17 | 64.03310 | -22.53648 | 38° | 31km/h | 7632m | 4.3m/s | -42.2°C | 45.4% | 0hPa | 0V | 00:00:00 | 00:00:00 | 00:00:00 | |
| DL9RDZ-1 | 2026-08-30 11:28:07 | 64.03251 | -22.53756 | 40° | 27km/h | 7588m | 4.8m/s | -41.8°C | 41.6% | 0hPa | 0V | 00:00:00 | 00:00:00 | 00:00:00 | |
| DL9RDZ-1 | 2026-08-30 11:27:56 | 64.03186 | -22.53865 | 38° | 27km/h | 7540m | 5.0m/s | -41.5°C | 36.7% | 0hPa | 0V | 00:00:00 | 00:00:00 | 00:00:00 | |
| DL9RDZ-1 | 2026-08-30 11:27:46 | 64.03124 | -22.53982 | 46° | 27km/h | 7494m | 3.5m/s | -41.1°C | 43.3% | 0hPa | 0V | 00:00:00 | 00:00:00 | 00:00:00 | |
| DL9RDZ-1 | 2026-08-30 11:27:34 | 64.03062 | -22.54104 | 43° | 31km/h | 7452m | 3.8m/s | -40.7°C | 38.0% | 0hPa | 0V | 00:00:00 | 00:00:00 | 00:00:00 | |
| DL9RDZ-1 | 2026-08-30 11:27:23 | 64.03009 | -22.54236 | 42° | 31km/h | 7409m | 1.8m/s | -40.3°C | 29.4% | 0hPa | 0V | 00:00:00 | 00:00:00 | 00:00:00 | |
| DL9RDZ-1 | 2026-08-30 11:27:13 | 64.02953 | -22.54381 | 53° | 31km/h | 7367m | 3.8m/s | -40.1°C | 26.3% | 0hPa | 0V | 00:00:00 | 00:00:00 | 00:00:00 | |
| DL9RDZ-1 | 2026-08-30 11:27:01 | 64.02901 | -22.54523 | 53° | 33km/h | 7323m | 3.6m/s | -39.9°C | 26.5% | 0hPa | 0V | 00:00:00 | 00:00:00 | 00:00:00 | |
| DL9RDZ-1 | 2026-08-30 11:26:51 | 64.02851 | -22.54649 | 49° | 31km/h | 7283m | 2.8m/s | -39.6°C | 28.3% | 0hPa | 0V | 00:00:00 | 00:00:00 | 00:00:00 | |
| DL9RDZ-1 | 2026-08-30 11:26:41 | 64.02792 | -22.54768 | 40° | 31km/h | 7241m | 4.0m/s | -39.4°C | 30.4% | 0hPa | 0V | 00:00:00 | 00:00:00 | 00:00:00 | |
| DL9RDZ-1 | 2026-08-30 11:26:30 | 64.02730 | -22.54912 | 51° | 33km/h | 7190m | 6.8m/s | -39.0°C | 32.8% | 0hPa | 0V | 00:00:00 | 00:00:00 | 00:00:00 | |
| DL9RDZ-1 | 2026-08-30 11:26:20 | 64.02664 | -22.55023 | 43° | 31km/h | 7139m | 4.0m/s | -39.1°C | 50.6% | 0hPa | 0V | 00:00:00 | 00:00:00 | 00:00:00 | |
| DL9RDZ-1 | 2026-08-30 11:26:10 | 64.02608 | -22.55160 | 52° | 31km/h | 7094m | 4.4m/s | -39.0°C | 49.3% | 0hPa | 0V | 00:00:00 | 00:00:00 | 00:00:00 | |
| DL9RDZ-1 | 2026-08-30 11:25:59 | 64.02556 | -22.55258 | 37° | 27km/h | 7046m | 4.2m/s | -38.6°C | 47.8% | 0hPa | 0V | 00:00:00 | 00:00:00 | 00:00:00 | |
| DL9RDZ-1 | 2026-08-30 11:25:49 | 64.02512 | -22.55339 | 46° | 26km/h | 7006m | 2.9m/s | -38.2°C | 48.8% | 0hPa | 0V | 00:00:00 | 00:00:00 | 00:00:00 | |
| DL9RDZ-1 | 2026-08-30 11:25:38 | 64.02462 | -22.55425 | 35° | 20km/h | 6962m | 3.9m/s | -38.0°C | 49.1% | 0hPa | 0V | 00:00:00 | 00:00:00 | 00:00:00 | |
| DL9RDZ-1 | 2026-08-30 11:25:28 | 64.02419 | -22.55506 | 31° | 18km/h | 6918m | 3.1m/s | -37.6°C | 49.4% | 0hPa | 0V | 00:00:00 | 00:00:00 | 00:00:00 | |
| DL9RDZ-1 | 2026-08-30 11:25:17 | 64.02381 | -22.55568 | 51° | 20km/h | 6878m | 4.2m/s | -37.3°C | 49.1% | 0hPa | 0V | 00:00:00 | 00:00:00 | 00:00:00 | |
| DL9RDZ-1 | 2026-08-30 11:25:06 | 64.02334 | -22.55628 | 30° | 16km/h | 6830m | 4.6m/s | -36.9°C | 49.1% | 0hPa | 0V | 00:00:00 | 00:00:00 | 00:00:00 | |
| DL9RDZ-1 | 2026-08-30 11:24:56 | 64.02301 | -22.55682 | 47° | 16km/h | 6779m | 6.1m/s | -36.5°C | 47.1% | 0hPa | 0V | 00:00:00 | 00:00:00 | 00:00:00 | |
| DL9RDZ-1 | 2026-08-30 11:24:46 | 64.02262 | -22.55728 | 41° | 18km/h | 6732m | 3.5m/s | -36.1°C | 47.9% | 0hPa | 0V | 00:00:00 | 00:00:00 | 00:00:00 | |
| DL9RDZ-1 | 2026-08-30 11:24:35 | 64.02229 | -22.55793 | 38° | 20km/h | 6691m | 4.4m/s | -35.8°C | 47.1% | 0hPa | 0V | 00:00:00 | 00:00:00 | 00:00:00 | |
| DL9RDZ-1 | 2026-08-30 11:24:25 | 64.02196 | -22.55856 | 46° | 15km/h | 6648m | 3.7m/s | -35.5°C | 48.0% | 0hPa | 0V | 00:00:00 | 00:00:00 | 00:00:00 | |
| DL9RDZ-1 | 2026-08-30 11:24:15 | 64.02161 | -22.55947 | 54° | 16km/h | 6593m | 3.9m/s | -35.1°C | 46.9% | 0hPa | 0V | 00:00:00 | 00:00:00 | 00:00:00 | |
| DL9RDZ-1 | 2026-08-30 11:24:03 | 64.02121 | -22.56023 | 44° | 20km/h | 6539m | 5.2m/s | -34.8°C | 47.7% | 0hPa | 0V | 00:00:00 | 00:00:00 | 00:00:00 | |
| DL9RDZ-1 | 2026-08-30 11:23:52 | 64.02077 | -22.56120 | 35° | 22km/h | 6492m | 5.3m/s | -34.4°C | 47.3% | 0hPa | 0V | 00:00:00 | 00:00:00 | 00:00:00 | |
| DL9RDZ-1 | 2026-08-30 11:23:42 | 64.02041 | -22.56197 | 42° | 22km/h | 6452m | 3.5m/s | -34.1°C | 47.7% | 0hPa | 0V | 00:00:00 | 00:00:00 | 00:00:00 | |
| DL9RDZ-1 | 2026-08-30 11:23:31 | 64.02002 | -22.56292 | 63° | 18km/h | 6398m | 4.8m/s | -33.7°C | 44.1% | 0hPa | 0V | 00:00:00 | 00:00:00 | 00:00:00 | |
| DL9RDZ-1 | 2026-08-30 11:23:21 | 64.01974 | -22.56365 | 53° | 24km/h | 6354m | 4.4m/s | -33.6°C | 49.7% | 0hPa | 0V | 00:00:00 | 00:00:00 | 00:00:00 | |
| DL9RDZ-1 | 2026-08-30 11:23:10 | 64.01933 | -22.56446 | 36° | 24km/h | 6299m | 4.4m/s | -33.2°C | 50.5% | 0hPa | 0V | 00:00:00 | 00:00:00 | 00:00:00 | |
| DL9RDZ-1 | 2026-08-30 11:23:00 | 64.01900 | -22.56530 | 46° | 16km/h | 6243m | 4.9m/s | -32.7°C | 47.0% | 0hPa | 0V | 00:00:00 | 00:00:00 | 00:00:00 | |
| DL9RDZ-1 | 2026-08-30 11:22:51 | 64.01861 | -22.56633 | 55° | 27km/h | 6196m | 3.8m/s | -32.4°C | 46.0% | 0hPa | 0V | 00:00:00 | 00:00:00 | 00:00:00 | |
| DL9RDZ-1 | 2026-08-30 11:22:40 | 64.01826 | -22.56710 | 49° | 18km/h | 6154m | 4.2m/s | -32.1°C | 43.0% | 0hPa | 0V | 00:00:00 | 00:00:00 | 00:00:00 | |
| DL9RDZ-1 | 2026-08-30 11:22:29 | 64.01791 | -22.56782 | 64° | 16km/h | 6105m | 4.5m/s | -31.8°C | 36.5% | 0hPa | 0V | 00:00:00 | 00:00:00 | 00:00:00 | |
| DL9RDZ-1 | 2026-08-30 11:22:18 | 64.01763 | -22.56880 | 64° | 15km/h | 6055m | 2.8m/s | -31.5°C | 38.7% | 0hPa | 0V | 00:00:00 | 00:00:00 | 00:00:00 | |
| DL9RDZ-1 | 2026-08-30 11:22:07 | 64.01739 | -22.56967 | 62° | 18km/h | 6009m | 2.7m/s | -31.2°C | 40.9% | 0hPa | 0V | 00:00:00 | 00:00:00 | 00:00:00 | |
| DL9RDZ-1 | 2026-08-30 11:21:56 | 64.01696 | -22.57084 | 55° | 27km/h | 5954m | 5.6m/s | -30.8°C | 39.2% | 0hPa | 0V | 00:00:00 | 00:00:00 | 00:00:00 | |
| DL9RDZ-1 | 2026-08-30 11:21:45 | 64.01648 | -22.57197 | 52° | 26km/h | 5906m | 4.3m/s | -30.5°C | 47.9% | 0hPa | 0V | 00:00:00 | 00:00:00 | 00:00:00 | |
| DL9RDZ-1 | 2026-08-30 11:21:35 | 64.01605 | -22.57314 | 50° | 20km/h | 5858m | 5.1m/s | -30.3°C | 48.8% | 0hPa | 0V | 00:00:00 | 00:00:00 | 00:00:00 | |
| DL9RDZ-1 | 2026-08-30 11:21:24 | 64.01567 | -22.57400 | 49° | 15km/h | 5807m | 2.8m/s | -29.8°C | 43.4% | 0hPa | 0V | 00:00:00 | 00:00:00 | 00:00:00 | |
| DL9RDZ-1 | 2026-08-30 11:21:13 | 64.01527 | -22.57472 | 51° | 15km/h | 5764m | 3.6m/s | -29.4°C | 41.2% | 0hPa | 0V | 00:00:00 | 00:00:00 | 00:00:00 | |
| DL9RDZ-1 | 2026-08-30 11:21:03 | 64.01495 | -22.57565 | 58° | 20km/h | 5719m | 5.2m/s | -29.0°C | 38.6% | 0hPa | 0V | 00:00:00 | 00:00:00 | 00:00:00 | |
| DL9RDZ-1 | 2026-08-30 11:20:53 | 64.01456 | -22.57647 | 40° | 18km/h | 5673m | 4.6m/s | -28.6°C | 36.6% | 0hPa | 0V | 00:00:00 | 00:00:00 | 00:00:00 | |
| DL9RDZ-1 | 2026-08-30 11:20:43 | 64.01412 | -22.57699 | 28° | 18km/h | 5634m | 4.1m/s | -28.4°C | 34.8% | 0hPa | 0V | 00:00:00 | 00:00:00 | 00:00:00 | |
| DL9RDZ-1 | 2026-08-30 11:20:33 | 64.01372 | -22.57766 | 41° | 20km/h | 5595m | 3.8m/s | -28.4°C | 44.0% | 0hPa | 0V | 00:00:00 | 00:00:00 | 00:00:00 | |
| DL9RDZ-1 | 2026-08-30 11:20:22 | 64.01318 | -22.57825 | 33° | 26km/h | 5549m | 3.2m/s | -28.1°C | 49.6% | 0hPa | 0V | 00:00:00 | 00:00:00 | 00:00:00 | |
| DL9RDZ-1 | 2026-08-30 11:20:11 | 64.01247 | -22.57917 | 25° | 29km/h | 5498m | 3.9m/s | -27.7°C | 54.8% | 0hPa | 0V | 00:00:00 | 00:00:00 | 00:00:00 | |
| DL9RDZ-1 | 2026-08-30 11:20:00 | 64.01187 | -22.57970 | 25° | 22km/h | 5434m | 5.3m/s | -27.3°C | 63.8% | 0hPa | 0V | 00:00:00 | 00:00:00 | 00:00:00 | |
| DL9RDZ-1 | 2026-08-30 11:19:49 | 64.01114 | -22.58016 | 18° | 42km/h | 5380m | 5.7m/s | -27.0°C | 71.9% | 0hPa | 0V | 00:00:00 | 00:00:00 | 00:00:00 | |
| DL9RDZ-1 | 2026-08-30 11:19:39 | 64.01027 | -22.58069 | 4° | 47km/h | 5328m | 6.1m/s | -27.3°C | 86.0% | 0hPa | 0V | 00:00:00 | 00:00:00 | 00:00:00 | |
| DL9RDZ-1 | 2026-08-30 11:19:28 | 64.00905 | -22.58084 | 3° | 47km/h | 5276m | 3.8m/s | -27.6°C | 94.9% | 0hPa | 0V | 00:00:00 | 00:00:00 | 00:00:00 | |
| DL9RDZ-1 | 2026-08-30 11:19:06 | 64.00712 | -22.58136 | 23° | 37km/h | 5165m | 6.1m/s | -26.8°C | 92.8% | 0hPa | 0V | 00:00:00 | 00:00:00 | 00:00:00 | |
| DL9RDZ-1 | 2026-08-30 11:18:44 | 64.00543 | -22.58224 | 357° | 33km/h | 5042m | 5.7m/s | -25.6°C | 86.4% | 0hPa | 0V | 00:00:00 | 00:00:00 | 00:00:00 | |
| DL9RDZ-1 | 2026-08-30 11:18:33 | 64.00457 | -22.58249 | 19° | 37km/h | 4985m | 3.7m/s | -25.0°C | 83.4% | 0hPa | 0V | 00:00:00 | 00:00:00 | 00:00:00 | |
| DL9RDZ-1 | 2026-08-30 11:17:33 | 64.00083 | -22.58620 | 26° | 31km/h | 4697m | 6.4m/s | -22.3°C | 70.7% | 0hPa | 0V | 00:00:00 | 00:00:00 | 00:00:00 | |
| DL9RDZ-1 | 2026-08-30 11:16:54 | 63.99908 | -22.58803 | 31° | 11km/h | 4524m | 3.5m/s | -20.8°C | 65.4% | 0hPa | 0V | 00:00:00 | 00:00:00 | 00:00:00 | |
| DL9RDZ-1 | 2026-08-30 11:16:01 | 63.99757 | -22.59118 | 65° | 15km/h | 4290m | 4.6m/s | -18.9°C | 62.6% | 0hPa | 0V | 00:00:00 | 00:00:00 | 00:00:00 | |
| DL9RDZ-1 | 2026-08-30 11:15:50 | 63.99745 | -22.59177 | 60° | 16km/h | 4243m | 6.7m/s | -18.5°C | 61.8% | 0hPa | 0V | 00:00:00 | 00:00:00 | 00:00:00 | |
| DL9RDZ-1 | 2026-08-30 11:15:40 | 63.99731 | -22.59246 | 52° | 15km/h | 4191m | 4.9m/s | -18.0°C | 62.9% | 0hPa | 0V | 00:00:00 | 00:00:00 | 00:00:00 | |
| DL9RDZ-1 | 2026-08-30 11:15:28 | 63.99709 | -22.59302 | 42° | 20km/h | 4141m | 4.8m/s | -18.2°C | 75.0% | 0hPa | 0V | 00:00:00 | 00:00:00 | 00:00:00 | |
| DL9RDZ-1 | 2026-08-30 11:15:18 | 63.99665 | -22.59387 | 49° | 18km/h | 4097m | 6.1m/s | -18.5°C | 90.4% | 0hPa | 0V | 00:00:00 | 00:00:00 | 00:00:00 | |
| DL9RDZ-1 | 2026-08-30 11:15:07 | 63.99636 | -22.59534 | 73° | 31km/h | 4043m | 2.8m/s | -18.1°C | 90.7% | 0hPa | 0V | 00:00:00 | 00:00:00 | 00:00:00 | |
| DL9RDZ-1 | 2026-08-30 11:14:56 | 63.99608 | -22.59708 | 85° | 27km/h | 4007m | 3.0m/s | -17.8°C | 87.8% | 0hPa | 0V | 00:00:00 | 00:00:00 | 00:00:00 | |
| DL9RDZ-1 | 2026-08-30 11:14:45 | 63.99578 | -22.59888 | 61° | 38km/h | 3960m | 4.3m/s | -17.3°C | 87.1% | 0hPa | 0V | 00:00:00 | 00:00:00 | 00:00:00 | |
| DL9RDZ-1 | 2026-08-30 11:14:35 | 63.99545 | -22.60073 | 83° | 22km/h | 3901m | 4.8m/s | -16.7°C | 83.0% | 0hPa | 0V | 00:00:00 | 00:00:00 | 00:00:00 | |
| DL9RDZ-1 | 2026-08-30 11:14:24 | 63.99514 | -22.60213 | 76° | 27km/h | 3845m | 5.3m/s | -16.3°C | 82.0% | 0hPa | 0V | 00:00:00 | 00:00:00 | 00:00:00 | |
| DL9RDZ-1 | 2026-08-30 11:14:13 | 63.99488 | -22.60400 | 75° | 33km/h | 3790m | 2.8m/s | -15.9°C | 87.3% | 0hPa | 0V | 00:00:00 | 00:00:00 | 00:00:00 | |
| DL9RDZ-1 | 2026-08-30 11:14:02 | 63.99461 | -22.60576 | 40° | 24km/h | 3737m | 5.4m/s | -15.5°C | 86.7% | 0hPa | 0V | 00:00:00 | 00:00:00 | 00:00:00 | |
| DL9RDZ-1 | 2026-08-30 11:13:52 | 63.99443 | -22.60684 | 70° | 26km/h | 3684m | 6.0m/s | -15.1°C | 87.1% | 0hPa | 0V | 00:00:00 | 00:00:00 | 00:00:00 | |
| DL9RDZ-1 | 2026-08-30 11:13:42 | 63.99414 | -22.60830 | 63° | 29km/h | 3638m | 4.7m/s | -14.8°C | 91.2% | 0hPa | 0V | 00:00:00 | 00:00:00 | 00:00:00 | |
| DL9RDZ-1 | 2026-08-30 11:13:31 | 63.99369 | -22.60942 | 73° | 27km/h | 3585m | 6.6m/s | -14.9°C | 95.7% | 0hPa | 0V | 00:00:00 | 00:00:00 | 00:00:00 | |
| DL9RDZ-1 | 2026-08-30 11:13:20 | 63.99362 | -22.61065 | 91° | 15km/h | 3527m | 3.9m/s | -14.6°C | 92.5% | 0hPa | 0V | 00:00:00 | 00:00:00 | 00:00:00 | |
| DL9RDZ-1 | 2026-08-30 11:13:09 | 63.99355 | -22.61125 | 106° | 7km/h | 3470m | 6.0m/s | -14.2°C | 89.4% | 0hPa | 0V | 00:00:00 | 00:00:00 | 00:00:00 | |
| DL9RDZ-1 | 2026-08-30 11:12:59 | 63.99354 | -22.61192 | 95° | 7km/h | 3427m | 4.4m/s | -13.8°C | 91.4% | 0hPa | 0V | 00:00:00 | 00:00:00 | 00:00:00 | |
| DL9RDZ-1 | 2026-08-30 11:12:48 | 63.99357 | -22.61260 | 82° | 9km/h | 3381m | 4.3m/s | -13.4°C | 91.3% | 0hPa | 0V | 00:00:00 | 00:00:00 | 00:00:00 | |
| DL9RDZ-1 | 2026-08-30 11:12:37 | 63.99345 | -22.61294 | 349° | 4km/h | 3337m | 2.7m/s | -13.0°C | 89.7% | 0hPa | 0V | 00:00:00 | 00:00:00 | 00:00:00 | |
| DL9RDZ-1 | 2026-08-30 11:12:27 | 63.99336 | -22.61347 | 89° | 16km/h | 3281m | 5.5m/s | -12.5°C | 86.9% | 0hPa | 0V | 00:00:00 | 00:00:00 | 00:00:00 | |
| DL9RDZ-1 | 2026-08-30 11:12:15 | 63.99342 | -22.61404 | 354° | 4km/h | 3226m | 5.8m/s | -12.0°C | 84.5% | 0hPa | 0V | 00:00:00 | 00:00:00 | 00:00:00 | |
| DL9RDZ-1 | 2026-08-30 11:12:05 | 63.99345 | -22.61431 | 129° | 7km/h | 3171m | 4.7m/s | -11.5°C | 80.9% | 0hPa | 0V | 00:00:00 | 00:00:00 | 00:00:00 | |
| DL9RDZ-1 | 2026-08-30 11:11:54 | 63.99330 | -22.61462 | 16° | 4km/h | 3124m | 4.0m/s | -11.1°C | 79.4% | 0hPa | 0V | 00:00:00 | 00:00:00 | 00:00:00 | |
| DL9RDZ-1 | 2026-08-30 11:10:22 | 63.99247 | -22.61811 | 2° | 13km/h | 2719m | 4.4m/s | -8.5°C | 91.1% | 0hPa | 0V | 00:00:00 | 00:00:00 | 00:00:00 | |
| DL9RDZ-1 | 2026-08-30 11:10:06 | 63.99206 | -22.61830 | 358° | 9km/h | 2658m | 5.4m/s | -8.2°C | 93.6% | 0hPa | 0V | 00:00:00 | 00:00:00 | 00:00:00 | |
| DL9RDZ-1 | 2026-08-30 11:09:54 | 63.99172 | -22.61817 | 313° | 9km/h | 2613m | 4.3m/s | -7.8°C | 91.8% | 0hPa | 0V | 00:00:00 | 00:00:00 | 00:00:00 | |
| DL9RDZ-1 | 2026-08-30 11:09:43 | 63.99140 | -22.61857 | 40° | 9km/h | 2563m | 4.5m/s | -7.7°C | 97.8% | 0hPa | 0V | 00:00:00 | 00:00:00 | 00:00:00 | |
| DL9RDZ-1 | 2026-08-30 11:09:32 | 63.99117 | -22.61894 | 18° | 7km/h | 2512m | 5.3m/s | -7.4°C | 95.3% | 0hPa | 0V | 00:00:00 | 00:00:00 | 00:00:00 | |
| DL9RDZ-1 | 2026-08-30 11:09:21 | 63.99086 | -22.61921 | 36° | 13km/h | 2463m | 3.5m/s | -7.0°C | 95.3% | 0hPa | 0V | 00:00:00 | 00:00:00 | 00:00:00 | |
| DL9RDZ-1 | 2026-08-30 11:09:11 | 63.99051 | -22.61934 | 2° | 11km/h | 2416m | 5.0m/s | -6.6°C | 92.8% | 0hPa | 0V | 00:00:00 | 00:00:00 | 00:00:00 | |
| DL9RDZ-1 | 2026-08-30 11:09:00 | 63.99018 | -22.61956 | 345° | 9km/h | 2365m | 5.2m/s | -6.2°C | 89.6% | 0hPa | 0V | 00:00:00 | 00:00:00 | 00:00:00 | |
| DL9RDZ-1 | 2026-08-30 11:08:50 | 63.98996 | -22.61928 | 319° | 11km/h | 2324m | 4.3m/s | -6.3°C | 98.3% | 0hPa | 0V | 00:00:00 | 00:00:00 | 00:00:00 | |
| DL9RDZ-1 | 2026-08-30 11:08:39 | 63.98975 | -22.61893 | 30° | 11km/h | 2271m | 5.7m/s | -6.0°C | 99.1% | 0hPa | 0V | 00:00:00 | 00:00:00 | 00:00:00 | |
| DL9RDZ-1 | 2026-08-30 11:08:28 | 63.98934 | -22.61914 | 4° | 16km/h | 2206m | 4.4m/s | -5.6°C | 99.4% | 0hPa | 0V | 00:00:00 | 00:00:00 | 00:00:00 | |
| DL9RDZ-1 | 2026-08-30 11:08:17 | 63.98892 | -22.61898 | 346° | 24km/h | 2160m | 3.6m/s | -5.3°C | 99.5% | 0hPa | 0V | 00:00:00 | 00:00:00 | 00:00:00 | |
| DL9RDZ-1 | 2026-08-30 11:08:07 | 63.98850 | -22.61888 | 320° | 11km/h | 2113m | 4.7m/s | -5.0°C | 98.4% | 0hPa | 0V | 00:00:00 | 00:00:00 | 00:00:00 | |
| DL9RDZ-1 | 2026-08-30 11:07:57 | 63.98817 | -22.61865 | 358° | 18km/h | 2059m | 4.0m/s | -4.6°C | 99.4% | 0hPa | 0V | 00:00:00 | 00:00:00 | 00:00:00 | |
| DL9RDZ-1 | 2026-08-30 11:07:46 | 63.98773 | -22.61860 | 350° | 18km/h | 2006m | 3.9m/s | -4.3°C | 0% | 0hPa | 0V | 00:00:00 | 00:00:00 | 00:00:00 | |
| DL9RDZ-1 | 2026-08-30 11:07:35 | 63.98749 | -22.61851 | 344° | 18km/h | 1960m | 4.5m/s | -4.0°C | 99.0% | 0hPa | 0V | 00:00:00 | 00:00:00 | 00:00:00 | |
| DL9RDZ-1 | 2026-08-30 11:07:24 | 63.98708 | -22.61869 | 19° | 26km/h | 1907m | 5.7m/s | -3.5°C | 97.2% | 0hPa | 0V | 00:00:00 | 00:00:00 | 00:00:00 | |
| DL9RDZ-1 | 2026-08-30 11:07:08 | 63.98625 | -22.61873 | 2° | 20km/h | 1819m | 6.6m/s | -3.2°C | 94.8% | 0hPa | 0V | 00:00:00 | 00:00:00 | 00:00:00 | |
| DL9RDZ-1 | 2026-08-30 11:06:29 | 63.98484 | -22.61925 | 347° | 16km/h | 1633m | 4.2m/s | -2.1°C | 97.8% | 0hPa | 0V | 00:00:00 | 00:00:00 | 00:00:00 | |
| DL9RDZ-1 | 2026-08-30 11:06:18 | 63.98448 | -22.61930 | 337° | 24km/h | 1586m | 4.9m/s | -1.8°C | 97.1% | 0hPa | 0V | 00:00:00 | 00:00:00 | 00:00:00 | |
| DL9RDZ-1 | 2026-08-30 11:06:07 | 63.98406 | -22.61938 | 37° | 16km/h | 1533m | 4.3m/s | -1.4°C | 97.6% | 0hPa | 0V | 00:00:00 | 00:00:00 | 00:00:00 | |
| DL9RDZ-1 | 2026-08-30 11:05:56 | 63.98365 | -22.61938 | 14° | 9km/h | 1476m | 4.7m/s | -1.1°C | 98.5% | 0hPa | 0V | 00:00:00 | 00:00:00 | 00:00:00 | |
| DL9RDZ-1 | 2026-08-30 11:05:46 | 63.98315 | -22.61927 | 346° | 26km/h | 1430m | 5.3m/s | -0.8°C | 99.1% | 0hPa | 0V | 00:00:00 | 00:00:00 | 00:00:00 | |
| DL9RDZ-1 | 2026-08-30 11:05:36 | 63.98262 | -22.61901 | 344° | 29km/h | 1380m | 3.2m/s | -0.5°C | 0% | 0hPa | 0V | 00:00:00 | 00:00:00 | 00:00:00 | |
| DL9RDZ-1 | 2026-08-30 11:05:23 | 63.98201 | -22.61905 | 8° | 26km/h | 1312m | 3.6m/s | -0.0°C | 0% | 0hPa | 0V | 00:00:00 | 00:00:00 | 00:00:00 | |
| DL9RDZ-1 | 2026-08-30 11:05:13 | 63.98158 | -22.61894 | 4° | 18km/h | 1268m | 6.5m/s | 0°C | 0% | 0hPa | 0V | 00:00:00 | 00:00:00 | 00:00:00 | |
| DL9RDZ-1 | 2026-08-30 11:05:02 | 63.98107 | -22.61882 | 341° | 13km/h | 1211m | 5.0m/s | 0°C | 0% | 0hPa | 0V | 00:00:00 | 00:00:00 | 00:00:00 | |
| DL9RDZ-1 | 2026-08-30 11:04:51 | 63.98048 | -22.61889 | 15° | 22km/h | 1157m | 6.7m/s | 0°C | 0% | 0hPa | 0V | 00:00:00 | 00:00:00 | 00:00:00 | |
| DL9RDZ-1 | 2026-08-30 11:03:26 | 63.97578 | -22.61929 | 39° | 16km/h | 762m | 3.9m/s | 0°C | 0% | 0hPa | 0V | 00:00:00 | 00:00:00 | 00:00:00 |